Time,TemperatureF,DewpointF,PressureIn,WindDirection,WindDirectionDegrees,WindSpeedMPH,WindSpeedGustMPH,Humidity,HourlyPrecipIn,Conditions,Clouds,dailyrainin,SoftwareType,DateUTC
2013-08-09 00:01:00,75.1,72.0,29.93,South,182,1.0,3.0,90,0.00,,,0.30,Wunderground v.1.15,2013-08-09 04:01:00,
2013-08-09 00:02:00,75.1,72.0,29.93,South,182,2.0,3.0,90,0.00,,,0.30,Wunderground v.1.15,2013-08-09 04:02:00,
2013-08-09 00:07:00,75.2,72.1,29.93,South,182,1.0,3.0,90,0.00,,,0.00,Wunderground v.1.15,2013-08-09 04:07:00,
2013-08-09 00:08:00,75.1,72.0,29.93,South,182,0.0,3.0,90,0.00,,,0.00,Wunderground v.1.15,2013-08-09 04:08:00,
2013-08-09 00:11:00,75.0,72.2,29.93,South,182,1.0,1.0,91,0.00,,,0.00,Wunderground v.1.15,2013-08-09 04:11:00,
2013-08-09 00:13:00,74.8,72.0,29.93,South,182,0.0,1.0,91,0.00,,,0.00,Wunderground v.1.15,2013-08-09 04:13:00,
2013-08-09 00:14:00,74.7,71.9,29.93,South,182,0.0,1.0,91,0.00,,,0.00,Wunderground v.1.15,2013-08-09 04:14:00,
2013-08-09 00:16:00,74.6,71.8,29.93,South,182,0.0,1.0,91,0.00,,,0.00,Wunderground v.1.15,2013-08-09 04:16:00,
2013-08-09 00:17:00,74.5,71.7,29.93,South,182,0.0,1.0,91,0.00,,,0.00,Wunderground v.1.15,2013-08-09 04:17:00,
2013-08-09 00:19:00,74.3,71.8,29.93,South,182,0.0,1.0,92,0.00,,,0.00,Wunderground v.1.15,2013-08-09 04:19:00,
2013-08-09 00:21:00,74.2,71.7,29.94,South,182,0.0,0.0,92,0.00,,,0.00,Wunderground v.1.15,2013-08-09 04:21:00,
2013-08-09 00:23:00,74.0,71.5,29.94,South,182,0.0,0.0,92,0.00,,,0.00,Wunderground v.1.15,2013-08-09 04:23:00,
2013-08-09 00:25:00,73.9,71.4,29.94,South,182,0.0,0.0,92,0.00,,,0.00,Wunderground v.1.15,2013-08-09 04:25:00,
2013-08-09 00:26:00,73.9,71.4,29.94,South,182,0.0,0.0,92,0.00,,,0.00,Wunderground v.1.15,2013-08-09 04:26:00,
2013-08-09 00:27:00,73.8,71.6,29.94,South,182,1.0,1.0,93,0.00,,,0.00,Wunderground v.1.15,2013-08-09 04:27:00,
2013-08-09 00:30:00,73.6,71.4,29.94,South,182,0.0,0.0,93,0.00,,,0.00,Wunderground v.1.15,2013-08-09 04:30:00,
2013-08-09 00:33:00,73.4,71.3,29.94,South,182,0.0,0.0,93,0.00,,,0.00,Wunderground v.1.15,2013-08-09 04:33:00,
2013-08-09 00:36:00,73.3,71.2,29.94,South,182,0.0,0.0,93,0.00,,,0.00,Wunderground v.1.15,2013-08-09 04:36:00,
2013-08-09 00:41:00,73.0,71.2,29.93,South,182,0.0,0.0,94,0.00,,,0.00,Wunderground v.1.15,2013-08-09 04:41:00,
2013-08-09 00:42:00,73.0,71.2,29.93,South,182,0.0,0.0,94,0.00,,,0.00,Wunderground v.1.15,2013-08-09 04:42:00,
2013-08-09 00:43:00,73.0,71.2,29.93,South,182,0.0,0.0,94,0.00,,,0.00,Wunderground v.1.15,2013-08-09 04:43:00,
2013-08-09 00:46:00,72.8,71.0,29.93,South,182,0.0,0.0,94,0.00,,,0.00,Wunderground v.1.15,2013-08-09 04:46:00,
2013-08-09 00:47:00,72.8,71.0,29.93,South,182,0.0,0.0,94,0.00,,,0.00,Wunderground v.1.15,2013-08-09 04:47:00,
2013-08-09 00:48:00,72.8,71.0,29.93,South,182,0.0,0.0,94,0.00,,,0.00,Wunderground v.1.15,2013-08-09 04:48:00,
2013-08-09 00:51:00,72.6,70.8,29.93,South,182,1.0,1.0,94,0.00,,,0.00,Wunderground v.1.15,2013-08-09 04:51:00,
2013-08-09 00:52:00,72.6,70.8,29.93,South,182,2.0,2.0,94,0.00,,,0.00,Wunderground v.1.15,2013-08-09 04:52:00,
2013-08-09 00:53:00,72.6,70.8,29.94,South,182,1.0,2.0,94,0.00,,,0.00,Wunderground v.1.15,2013-08-09 04:53:00,
2013-08-09 00:56:00,72.7,71.2,29.94,South,182,1.0,3.0,95,0.00,,,0.00,Wunderground v.1.15,2013-08-09 04:56:00,
2013-08-09 00:57:00,72.7,71.2,29.94,South,182,1.0,3.0,95,0.00,,,0.00,Wunderground v.1.15,2013-08-09 04:57:00,
2013-08-09 01:02:00,72.7,71.2,29.94,South,182,0.0,1.0,95,0.00,,,0.00,Wunderground v.1.15,2013-08-09 05:02:00,
2013-08-09 01:04:00,72.7,71.2,29.94,South,182,1.0,2.0,95,0.00,,,0.00,Wunderground v.1.15,2013-08-09 05:04:00,
2013-08-09 01:05:00,72.7,71.2,29.94,South,182,0.0,2.0,95,0.00,,,0.00,Wunderground v.1.15,2013-08-09 05:05:00,
2013-08-09 01:07:00,72.7,71.2,29.94,South,182,0.0,2.0,95,0.00,,,0.00,Wunderground v.1.15,2013-08-09 05:07:00,
2013-08-09 01:10:00,72.7,71.2,29.93,South,182,1.0,1.0,95,0.00,,,0.00,Wunderground v.1.15,2013-08-09 05:10:00,
2013-08-09 01:12:00,72.6,71.1,29.94,South,182,0.0,1.0,95,0.00,,,0.00,Wunderground v.1.15,2013-08-09 05:12:00,
2013-08-09 01:14:00,72.6,71.1,29.93,South,182,1.0,1.0,95,0.00,,,0.00,Wunderground v.1.15,2013-08-09 05:14:00,
2013-08-09 01:16:00,72.6,71.1,29.93,South,182,1.0,1.0,95,0.00,,,0.00,Wunderground v.1.15,2013-08-09 05:16:00,
2013-08-09 01:17:00,72.6,71.1,29.93,South,182,0.0,1.0,95,0.00,,,0.00,Wunderground v.1.15,2013-08-09 05:17:00,
2013-08-09 01:19:00,72.5,71.0,29.94,South,182,0.0,1.0,95,0.00,,,0.00,Wunderground v.1.15,2013-08-09 05:19:00,
2013-08-09 01:21:00,72.5,71.0,29.94,South,182,0.0,0.0,95,0.00,,,0.00,Wunderground v.1.15,2013-08-09 05:21:00,
2013-08-09 01:22:00,72.5,71.0,29.94,South,182,0.0,0.0,95,0.00,,,0.00,Wunderground v.1.15,2013-08-09 05:22:00,
2013-08-09 01:26:00,72.5,71.3,29.94,South,182,0.0,0.0,96,0.00,,,0.00,Wunderground v.1.15,2013-08-09 05:26:00,
2013-08-09 01:27:00,72.5,71.3,29.94,South,182,0.0,0.0,96,0.00,,,0.00,Wunderground v.1.15,2013-08-09 05:27:00,
2013-08-09 01:31:00,72.4,71.2,29.94,South,182,0.0,0.0,96,0.00,,,0.00,Wunderground v.1.15,2013-08-09 05:31:00,
2013-08-09 01:32:00,72.4,71.2,29.94,South,182,0.0,0.0,96,0.00,,,0.00,Wunderground v.1.15,2013-08-09 05:32:00,
2013-08-09 01:34:00,72.4,71.2,29.94,South,182,0.0,0.0,96,0.00,,,0.00,Wunderground v.1.15,2013-08-09 05:34:00,
2013-08-09 01:35:00,72.4,71.2,29.94,South,182,0.0,0.0,96,0.00,,,0.00,Wunderground v.1.15,2013-08-09 05:35:00,
2013-08-09 01:38:00,72.3,71.1,29.94,South,182,0.0,0.0,96,0.00,,,0.00,Wunderground v.1.15,2013-08-09 05:38:00,
2013-08-09 01:40:00,72.3,71.1,29.94,South,182,1.0,1.0,96,0.00,,,0.00,Wunderground v.1.15,2013-08-09 05:40:00,
2013-08-09 01:41:00,72.3,71.1,29.94,South,182,1.0,1.0,96,0.00,,,0.00,Wunderground v.1.15,2013-08-09 05:41:00,
2013-08-09 01:42:00,72.3,71.1,29.94,South,182,0.0,1.0,96,0.00,,,0.00,Wunderground v.1.15,2013-08-09 05:42:00,
2013-08-09 01:44:00,72.3,71.1,29.94,South,182,0.0,1.0,96,0.00,,,0.00,Wunderground v.1.15,2013-08-09 05:44:00,
2013-08-09 01:47:00,72.2,71.0,29.94,South,182,0.0,1.0,96,0.00,,,0.00,Wunderground v.1.15,2013-08-09 05:47:00,
2013-08-09 01:48:00,72.2,71.0,29.94,South,182,0.0,1.0,96,0.00,,,0.00,Wunderground v.1.15,2013-08-09 05:48:00,
2013-08-09 01:49:00,72.2,71.0,29.94,South,182,0.0,1.0,96,0.00,,,0.00,Wunderground v.1.15,2013-08-09 05:49:00,
2013-08-09 01:54:00,72.1,70.9,29.94,South,182,0.0,0.0,96,0.00,,,0.00,Wunderground v.1.15,2013-08-09 05:54:00,
2013-08-09 01:55:00,72.2,71.0,29.94,South,182,0.0,0.0,96,0.00,,,0.00,Wunderground v.1.15,2013-08-09 05:55:00,
2013-08-09 01:56:00,72.1,70.9,29.94,South,182,0.0,0.0,96,0.00,,,0.00,Wunderground v.1.15,2013-08-09 05:56:00,
2013-08-09 01:57:00,72.1,70.9,29.94,South,182,0.0,0.0,96,0.00,,,0.00,Wunderground v.1.15,2013-08-09 05:57:00,
2013-08-09 02:01:00,72.1,70.9,29.94,South,182,0.0,0.0,96,0.00,,,0.00,Wunderground v.1.15,2013-08-09 06:01:00,
2013-08-09 02:02:00,72.1,70.9,29.94,South,182,0.0,0.0,96,0.00,,,0.00,Wunderground v.1.15,2013-08-09 06:02:00,
2013-08-09 02:06:00,72.1,70.9,29.94,South,182,0.0,0.0,96,0.00,,,0.00,Wunderground v.1.15,2013-08-09 06:06:00,
2013-08-09 02:07:00,72.1,70.9,29.94,South,182,0.0,0.0,96,0.00,,,0.00,Wunderground v.1.15,2013-08-09 06:07:00,
2013-08-09 02:11:00,72.1,70.9,29.94,South,182,0.0,1.0,96,0.00,,,0.00,Wunderground v.1.15,2013-08-09 06:11:00,
2013-08-09 02:12:00,72.1,70.9,29.94,South,182,0.0,1.0,96,0.00,,,0.00,Wunderground v.1.15,2013-08-09 06:12:00,
2013-08-09 02:16:00,72.1,70.9,29.94,South,182,1.0,2.0,96,0.00,,,0.00,Wunderground v.1.15,2013-08-09 06:16:00,
2013-08-09 02:17:00,72.1,70.9,29.94,South,182,0.0,2.0,96,0.00,,,0.00,Wunderground v.1.15,2013-08-09 06:17:00,
2013-08-09 02:18:00,72.0,70.8,29.94,South,182,0.0,2.0,96,0.00,,,0.00,Wunderground v.1.15,2013-08-09 06:18:00,
2013-08-09 02:21:00,72.0,70.8,29.94,South,182,0.0,0.0,96,0.00,,,0.00,Wunderground v.1.15,2013-08-09 06:21:00,
2013-08-09 02:22:00,72.0,70.8,29.94,South,182,0.0,0.0,96,0.00,,,0.00,Wunderground v.1.15,2013-08-09 06:22:00,
2013-08-09 02:23:00,72.0,70.8,29.94,South,182,0.0,0.0,96,0.00,,,0.00,Wunderground v.1.15,2013-08-09 06:23:00,
2013-08-09 02:26:00,71.9,70.7,29.94,South,182,1.0,1.0,96,0.00,,,0.00,Wunderground v.1.15,2013-08-09 06:26:00,
2013-08-09 02:27:00,71.9,71.0,29.95,South,182,0.0,1.0,97,0.00,,,0.00,Wunderground v.1.15,2013-08-09 06:27:00,
2013-08-09 02:28:00,71.9,71.0,29.95,South,182,0.0,1.0,97,0.00,,,0.00,Wunderground v.1.15,2013-08-09 06:28:00,
2013-08-09 02:31:00,71.9,71.0,29.94,South,182,0.0,2.0,97,0.00,,,0.00,Wunderground v.1.15,2013-08-09 06:31:00,
2013-08-09 02:32:00,71.9,71.0,29.95,South,182,0.0,2.0,97,0.00,,,0.00,Wunderground v.1.15,2013-08-09 06:32:00,
2013-08-09 02:33:00,71.9,71.0,29.95,South,182,0.0,2.0,97,0.00,,,0.00,Wunderground v.1.15,2013-08-09 06:33:00,
2013-08-09 02:34:00,71.9,71.0,29.95,South,182,0.0,2.0,97,0.00,,,0.00,Wunderground v.1.15,2013-08-09 06:34:00,
2013-08-09 02:36:00,71.9,71.0,29.95,South,182,0.0,2.0,97,0.00,,,0.00,Wunderground v.1.15,2013-08-09 06:36:00,
2013-08-09 02:38:00,71.9,71.0,29.94,South,182,0.0,2.0,97,0.00,,,0.00,Wunderground v.1.15,2013-08-09 06:38:00,
2013-08-09 02:39:00,71.8,70.9,29.95,South,182,0.0,2.0,97,0.00,,,0.00,Wunderground v.1.15,2013-08-09 06:39:00,
2013-08-09 02:42:00,71.8,70.9,29.95,South,182,0.0,1.0,97,0.00,,,0.00,Wunderground v.1.15,2013-08-09 06:42:00,
2013-08-09 02:43:00,71.8,70.9,29.95,South,182,0.0,1.0,97,0.00,,,0.00,Wunderground v.1.15,2013-08-09 06:43:00,
2013-08-09 02:44:00,71.8,70.9,29.94,South,182,0.0,1.0,97,0.00,,,0.00,Wunderground v.1.15,2013-08-09 06:44:00,
2013-08-09 02:45:00,71.8,70.9,29.95,South,182,0.0,1.0,97,0.00,,,0.00,Wunderground v.1.15,2013-08-09 06:45:00,
2013-08-09 02:47:00,71.7,70.8,29.94,South,182,0.0,1.0,97,0.00,,,0.00,Wunderground v.1.15,2013-08-09 06:47:00,
2013-08-09 02:48:00,71.8,70.9,29.94,South,182,0.0,1.0,97,0.00,,,0.00,Wunderground v.1.15,2013-08-09 06:48:00,
2013-08-09 02:49:00,71.7,70.8,29.94,South,182,0.0,1.0,97,0.00,,,0.00,Wunderground v.1.15,2013-08-09 06:49:00,
2013-08-09 02:50:00,71.7,70.8,29.94,South,182,0.0,0.0,97,0.00,,,0.00,Wunderground v.1.15,2013-08-09 06:50:00,
2013-08-09 02:52:00,71.7,70.8,29.94,South,182,0.0,0.0,97,0.00,,,0.00,Wunderground v.1.15,2013-08-09 06:52:00,
2013-08-09 02:53:00,71.7,70.8,29.94,South,182,0.0,0.0,97,0.00,,,0.00,Wunderground v.1.15,2013-08-09 06:53:00,
2013-08-09 02:54:00,71.7,70.8,29.94,South,182,0.0,0.0,97,0.00,,,0.00,Wunderground v.1.15,2013-08-09 06:54:00,
2013-08-09 02:55:00,71.7,70.8,29.94,South,182,0.0,0.0,97,0.00,,,0.00,Wunderground v.1.15,2013-08-09 06:55:00,
2013-08-09 02:56:00,71.7,70.8,29.94,South,182,0.0,0.0,97,0.00,,,0.00,Wunderground v.1.15,2013-08-09 06:56:00,
2013-08-09 02:57:00,71.7,70.8,29.94,South,182,0.0,0.0,97,0.00,,,0.00,Wunderground v.1.15,2013-08-09 06:57:00,
2013-08-09 02:59:00,71.7,70.8,29.94,South,182,0.0,0.0,97,0.00,,,0.00,Wunderground v.1.15,2013-08-09 06:59:00,
2013-08-09 03:00:00,71.7,70.8,29.94,South,182,0.0,0.0,97,0.00,,,0.00,Wunderground v.1.15,2013-08-09 07:00:00,
2013-08-09 03:01:00,71.7,70.8,29.94,South,182,0.0,0.0,97,0.00,,,0.00,Wunderground v.1.15,2013-08-09 07:01:00,
2013-08-09 03:03:00,71.7,70.8,29.94,South,182,0.0,0.0,97,0.00,,,0.00,Wunderground v.1.15,2013-08-09 07:03:00,
2013-08-09 03:04:00,71.7,70.8,29.94,South,182,0.0,0.0,97,0.00,,,0.00,Wunderground v.1.15,2013-08-09 07:04:00,
2013-08-09 03:05:00,71.7,70.8,29.94,South,182,0.0,0.0,97,0.00,,,0.00,Wunderground v.1.15,2013-08-09 07:05:00,
2013-08-09 03:06:00,71.7,70.8,29.94,South,182,0.0,0.0,97,0.00,,,0.00,Wunderground v.1.15,2013-08-09 07:06:00,
2013-08-09 03:08:00,71.8,70.9,29.94,South,182,0.0,0.0,97,0.00,,,0.00,Wunderground v.1.15,2013-08-09 07:08:00,
2013-08-09 03:09:00,71.8,70.9,29.94,South,182,0.0,0.0,97,0.00,,,0.00,Wunderground v.1.15,2013-08-09 07:09:00,
2013-08-09 03:11:00,71.8,70.9,29.94,South,182,0.0,0.0,97,0.00,,,0.00,Wunderground v.1.15,2013-08-09 07:11:00,
2013-08-09 03:12:00,71.8,70.9,29.94,South,182,0.0,0.0,97,0.00,,,0.00,Wunderground v.1.15,2013-08-09 07:12:00,
2013-08-09 03:14:00,71.8,70.9,29.94,South,182,0.0,0.0,97,0.00,,,0.00,Wunderground v.1.15,2013-08-09 07:14:00,
2013-08-09 03:15:00,71.8,70.9,29.94,South,182,0.0,0.0,97,0.00,,,0.00,Wunderground v.1.15,2013-08-09 07:15:00,
2013-08-09 03:16:00,71.8,70.9,29.94,South,182,0.0,0.0,97,0.00,,,0.00,Wunderground v.1.15,2013-08-09 07:16:00,
2013-08-09 03:18:00,71.9,71.0,29.94,South,182,0.0,0.0,97,0.00,,,0.00,Wunderground v.1.15,2013-08-09 07:18:00,
2013-08-09 03:19:00,71.9,71.0,29.94,South,182,0.0,0.0,97,0.00,,,0.00,Wunderground v.1.15,2013-08-09 07:19:00,
2013-08-09 03:20:00,71.9,71.0,29.94,South,182,0.0,0.0,97,0.00,,,0.00,Wunderground v.1.15,2013-08-09 07:20:00,
2013-08-09 03:22:00,71.9,71.0,29.94,South,182,0.0,0.0,97,0.00,,,0.00,Wunderground v.1.15,2013-08-09 07:22:00,
2013-08-09 03:23:00,71.9,71.0,29.94,South,182,0.0,0.0,97,0.00,,,0.00,Wunderground v.1.15,2013-08-09 07:23:00,
2013-08-09 03:25:00,71.9,71.0,29.94,South,182,0.0,0.0,97,0.00,,,0.00,Wunderground v.1.15,2013-08-09 07:25:00,
2013-08-09 03:27:00,71.9,71.0,29.94,South,182,0.0,0.0,97,0.00,,,0.00,Wunderground v.1.15,2013-08-09 07:27:00,
2013-08-09 03:29:00,71.9,71.0,29.94,South,182,0.0,0.0,97,0.00,,,0.00,Wunderground v.1.15,2013-08-09 07:29:00,
2013-08-09 03:30:00,71.9,71.0,29.95,South,182,0.0,0.0,97,0.00,,,0.00,Wunderground v.1.15,2013-08-09 07:30:00,
2013-08-09 03:31:00,71.9,71.0,29.95,South,182,0.0,0.0,97,0.00,,,0.00,Wunderground v.1.15,2013-08-09 07:31:00,
2013-08-09 03:32:00,71.9,71.0,29.95,South,182,0.0,0.0,97,0.00,,,0.00,Wunderground v.1.15,2013-08-09 07:32:00,
2013-08-09 03:34:00,71.9,71.0,29.94,South,182,0.0,0.0,97,0.00,,,0.00,Wunderground v.1.15,2013-08-09 07:34:00,
2013-08-09 03:35:00,71.9,71.0,29.95,South,182,0.0,0.0,97,0.00,,,0.00,Wunderground v.1.15,2013-08-09 07:35:00,
2013-08-09 03:36:00,71.9,71.0,29.95,South,182,0.0,0.0,97,0.00,,,0.00,Wunderground v.1.15,2013-08-09 07:36:00,
2013-08-09 03:37:00,71.9,71.0,29.95,South,182,0.0,0.0,97,0.00,,,0.00,Wunderground v.1.15,2013-08-09 07:37:00,
2013-08-09 03:39:00,71.9,71.0,29.95,South,182,0.0,0.0,97,0.00,,,0.00,Wunderground v.1.15,2013-08-09 07:39:00,
2013-08-09 03:40:00,71.9,71.0,29.95,South,182,0.0,0.0,97,0.00,,,0.00,Wunderground v.1.15,2013-08-09 07:40:00,
2013-08-09 03:42:00,71.8,70.9,29.95,South,182,0.0,0.0,97,0.00,,,0.00,Wunderground v.1.15,2013-08-09 07:42:00,
2013-08-09 03:44:00,71.9,71.0,29.95,South,182,0.0,0.0,97,0.00,,,0.00,Wunderground v.1.15,2013-08-09 07:44:00,
2013-08-09 03:45:00,71.9,71.0,29.95,South,182,0.0,0.0,97,0.00,,,0.00,Wunderground v.1.15,2013-08-09 07:45:00,
2013-08-09 03:46:00,71.9,71.0,29.95,South,182,0.0,0.0,97,0.00,,,0.00,Wunderground v.1.15,2013-08-09 07:46:00,
2013-08-09 03:47:00,71.9,71.0,29.95,South,182,0.0,0.0,97,0.00,,,0.00,Wunderground v.1.15,2013-08-09 07:47:00,
2013-08-09 03:49:00,71.9,71.0,29.95,South,182,0.0,0.0,97,0.00,,,0.00,Wunderground v.1.15,2013-08-09 07:49:00,
2013-08-09 03:50:00,71.9,71.0,29.95,South,182,0.0,0.0,97,0.00,,,0.00,Wunderground v.1.15,2013-08-09 07:50:00,
2013-08-09 03:51:00,71.9,71.0,29.95,South,182,0.0,0.0,97,0.00,,,0.00,Wunderground v.1.15,2013-08-09 07:51:00,
2013-08-09 03:52:00,71.9,71.0,29.95,South,182,0.0,0.0,97,0.00,,,0.00,Wunderground v.1.15,2013-08-09 07:52:00,
2013-08-09 03:55:00,71.9,71.0,29.95,South,182,0.0,0.0,97,0.00,,,0.00,Wunderground v.1.15,2013-08-09 07:55:00,
2013-08-09 03:56:00,71.9,71.0,29.95,South,182,0.0,0.0,97,0.00,,,0.00,Wunderground v.1.15,2013-08-09 07:56:00,
2013-08-09 03:57:00,71.9,71.0,29.95,South,182,0.0,0.0,97,0.00,,,0.00,Wunderground v.1.15,2013-08-09 07:57:00,
2013-08-09 04:01:00,71.9,71.0,29.95,South,182,0.0,0.0,97,0.00,,,0.00,Wunderground v.1.15,2013-08-09 08:01:00,
2013-08-09 04:02:00,71.9,71.0,29.95,South,182,0.0,0.0,97,0.00,,,0.00,Wunderground v.1.15,2013-08-09 08:02:00,
2013-08-09 04:06:00,71.9,71.0,29.95,South,182,0.0,0.0,97,0.00,,,0.00,Wunderground v.1.15,2013-08-09 08:06:00,
2013-08-09 04:07:00,71.9,71.0,29.95,South,182,0.0,0.0,97,0.00,,,0.00,Wunderground v.1.15,2013-08-09 08:07:00,
2013-08-09 04:11:00,71.9,71.0,29.95,South,182,0.0,0.0,97,0.00,,,0.00,Wunderground v.1.15,2013-08-09 08:11:00,
2013-08-09 04:12:00,71.9,71.0,29.95,South,182,0.0,0.0,97,0.00,,,0.00,Wunderground v.1.15,2013-08-09 08:12:00,
2013-08-09 04:16:00,71.9,71.0,29.95,South,182,0.0,0.0,97,0.00,,,0.00,Wunderground v.1.15,2013-08-09 08:16:00,
2013-08-09 04:17:00,71.9,71.0,29.95,South,182,0.0,0.0,97,0.00,,,0.00,Wunderground v.1.15,2013-08-09 08:17:00,
2013-08-09 04:18:00,71.9,71.0,29.95,South,182,0.0,0.0,97,0.00,,,0.00,Wunderground v.1.15,2013-08-09 08:18:00,
2013-08-09 04:21:00,71.8,70.9,29.96,South,182,0.0,0.0,97,0.00,,,0.00,Wunderground v.1.15,2013-08-09 08:21:00,
2013-08-09 04:22:00,71.8,70.9,29.96,South,182,0.0,0.0,97,0.00,,,0.00,Wunderground v.1.15,2013-08-09 08:22:00,
2013-08-09 04:23:00,71.8,70.9,29.96,South,182,0.0,0.0,97,0.00,,,0.00,Wunderground v.1.15,2013-08-09 08:23:00,
2013-08-09 04:24:00,71.8,70.9,29.96,South,182,0.0,0.0,97,0.00,,,0.00,Wunderground v.1.15,2013-08-09 08:24:00,
2013-08-09 04:27:00,71.8,70.9,29.96,South,182,0.0,0.0,97,0.00,,,0.00,Wunderground v.1.15,2013-08-09 08:27:00,
2013-08-09 04:28:00,71.8,70.9,29.96,South,182,0.0,0.0,97,0.00,,,0.00,Wunderground v.1.15,2013-08-09 08:28:00,
2013-08-09 04:29:00,71.8,70.9,29.96,South,182,0.0,0.0,97,0.00,,,0.00,Wunderground v.1.15,2013-08-09 08:29:00,
2013-08-09 04:32:00,71.8,70.9,29.96,South,182,0.0,0.0,97,0.00,,,0.00,Wunderground v.1.15,2013-08-09 08:32:00,
2013-08-09 04:33:00,71.8,70.9,29.96,South,182,0.0,0.0,97,0.00,,,0.00,Wunderground v.1.15,2013-08-09 08:33:00,
2013-08-09 04:34:00,71.7,70.8,29.96,South,182,0.0,0.0,97,0.00,,,0.00,Wunderground v.1.15,2013-08-09 08:34:00,
2013-08-09 04:38:00,71.7,70.8,29.96,South,182,0.0,0.0,97,0.00,,,0.00,Wunderground v.1.15,2013-08-09 08:38:00,
2013-08-09 04:39:00,71.7,70.8,29.96,South,182,0.0,0.0,97,0.00,,,0.00,Wunderground v.1.15,2013-08-09 08:39:00,
2013-08-09 04:43:00,71.7,70.8,29.96,South,182,0.0,0.0,97,0.00,,,0.00,Wunderground v.1.15,2013-08-09 08:43:00,
2013-08-09 04:44:00,71.7,70.8,29.96,South,182,0.0,0.0,97,0.00,,,0.00,Wunderground v.1.15,2013-08-09 08:44:00,
2013-08-09 04:48:00,71.7,70.8,29.96,South,182,0.0,0.0,97,0.00,,,0.00,Wunderground v.1.15,2013-08-09 08:48:00,
2013-08-09 04:49:00,71.7,70.8,29.96,South,182,0.0,0.0,97,0.00,,,0.00,Wunderground v.1.15,2013-08-09 08:49:00,
2013-08-09 04:50:00,71.7,70.8,29.96,South,182,0.0,0.0,97,0.00,,,0.00,Wunderground v.1.15,2013-08-09 08:50:00,
2013-08-09 04:53:00,71.7,71.1,29.96,South,182,0.0,0.0,98,0.00,,,0.00,Wunderground v.1.15,2013-08-09 08:53:00,
2013-08-09 04:54:00,71.7,71.1,29.96,South,182,0.0,0.0,98,0.00,,,0.00,Wunderground v.1.15,2013-08-09 08:54:00,
2013-08-09 04:55:00,71.7,71.1,29.96,South,182,0.0,0.0,98,0.00,,,0.00,Wunderground v.1.15,2013-08-09 08:55:00,
2013-08-09 04:58:00,71.7,70.8,29.95,South,182,0.0,0.0,97,0.00,,,0.00,Wunderground v.1.15,2013-08-09 08:58:00,
2013-08-09 04:59:00,71.7,70.8,29.95,South,182,0.0,0.0,97,0.00,,,0.00,Wunderground v.1.15,2013-08-09 08:59:00,
2013-08-09 05:00:00,71.7,70.8,29.95,South,182,0.0,0.0,97,0.00,,,0.00,Wunderground v.1.15,2013-08-09 09:00:00,
2013-08-09 05:04:00,71.6,70.7,29.95,South,182,0.0,0.0,97,0.00,,,0.00,Wunderground v.1.15,2013-08-09 09:04:00,
2013-08-09 05:05:00,71.6,70.7,29.95,South,182,0.0,0.0,97,0.00,,,0.00,Wunderground v.1.15,2013-08-09 09:05:00,
2013-08-09 05:06:00,71.6,70.7,29.96,South,182,0.0,0.0,97,0.00,,,0.00,Wunderground v.1.15,2013-08-09 09:06:00,
2013-08-09 05:09:00,71.6,70.7,29.96,South,182,0.0,0.0,97,0.00,,,0.00,Wunderground v.1.15,2013-08-09 09:09:00,
2013-08-09 05:10:00,71.6,70.7,29.96,South,182,0.0,0.0,97,0.00,,,0.00,Wunderground v.1.15,2013-08-09 09:10:00,
2013-08-09 05:11:00,71.5,70.6,29.96,South,182,0.0,0.0,97,0.00,,,0.00,Wunderground v.1.15,2013-08-09 09:11:00,
2013-08-09 05:14:00,71.5,70.6,29.96,South,182,0.0,0.0,97,0.00,,,0.00,Wunderground v.1.15,2013-08-09 09:14:00,
2013-08-09 05:15:00,71.5,70.6,29.96,South,182,0.0,0.0,97,0.00,,,0.00,Wunderground v.1.15,2013-08-09 09:15:00,
2013-08-09 05:16:00,71.5,70.6,29.96,South,182,0.0,0.0,97,0.00,,,0.00,Wunderground v.1.15,2013-08-09 09:16:00,
2013-08-09 05:20:00,71.4,70.5,29.95,South,182,0.0,0.0,97,0.00,,,0.00,Wunderground v.1.15,2013-08-09 09:20:00,
2013-08-09 05:21:00,71.4,70.5,29.95,South,182,0.0,0.0,97,0.00,,,0.00,Wunderground v.1.15,2013-08-09 09:21:00,
2013-08-09 05:22:00,71.4,70.5,29.95,South,182,0.0,0.0,97,0.00,,,0.00,Wunderground v.1.15,2013-08-09 09:22:00,
2013-08-09 05:25:00,71.3,70.4,29.95,South,182,0.0,0.0,97,0.00,,,0.00,Wunderground v.1.15,2013-08-09 09:25:00,
2013-08-09 05:26:00,71.3,70.4,29.95,South,182,0.0,0.0,97,0.00,,,0.00,Wunderground v.1.15,2013-08-09 09:26:00,
2013-08-09 05:27:00,71.3,70.4,29.95,South,182,0.0,0.0,97,0.00,,,0.00,Wunderground v.1.15,2013-08-09 09:27:00,
2013-08-09 05:30:00,71.3,70.4,29.95,South,182,0.0,0.0,97,0.00,,,0.00,Wunderground v.1.15,2013-08-09 09:30:00,
2013-08-09 05:31:00,71.3,70.4,29.95,South,182,0.0,0.0,97,0.00,,,0.00,Wunderground v.1.15,2013-08-09 09:31:00,
2013-08-09 05:33:00,71.3,70.4,29.95,South,182,0.0,0.0,97,0.00,,,0.00,Wunderground v.1.15,2013-08-09 09:33:00,
2013-08-09 05:35:00,71.3,70.7,29.95,South,182,0.0,0.0,98,0.00,,,0.00,Wunderground v.1.15,2013-08-09 09:35:00,
2013-08-09 05:37:00,71.3,70.7,29.95,South,182,0.0,0.0,98,0.00,,,0.00,Wunderground v.1.15,2013-08-09 09:37:00,
2013-08-09 05:38:00,71.3,70.7,29.95,South,182,0.0,0.0,98,0.00,,,0.00,Wunderground v.1.15,2013-08-09 09:38:00,
2013-08-09 05:40:00,71.3,70.7,29.95,South,182,0.0,0.0,98,0.00,,,0.00,Wunderground v.1.15,2013-08-09 09:40:00,
2013-08-09 05:42:00,71.3,70.7,29.95,South,182,0.0,0.0,98,0.00,,,0.00,Wunderground v.1.15,2013-08-09 09:42:00,
2013-08-09 05:43:00,71.3,70.7,29.95,South,182,0.0,0.0,98,0.00,,,0.00,Wunderground v.1.15,2013-08-09 09:43:00,
2013-08-09 05:45:00,71.3,70.7,29.95,South,182,0.0,0.0,98,0.00,,,0.00,Wunderground v.1.15,2013-08-09 09:45:00,
2013-08-09 05:47:00,71.3,70.7,29.95,South,182,0.0,0.0,98,0.00,,,0.00,Wunderground v.1.15,2013-08-09 09:47:00,
2013-08-09 05:48:00,71.3,70.7,29.95,South,182,0.0,0.0,98,0.00,,,0.00,Wunderground v.1.15,2013-08-09 09:48:00,
2013-08-09 05:50:00,71.3,70.7,29.95,South,182,0.0,0.0,98,0.00,,,0.00,Wunderground v.1.15,2013-08-09 09:50:00,
2013-08-09 05:51:00,71.3,70.7,29.95,South,182,0.0,0.0,98,0.00,,,0.00,Wunderground v.1.15,2013-08-09 09:51:00,
2013-08-09 05:52:00,71.3,70.7,29.95,South,182,0.0,0.0,98,0.00,,,0.00,Wunderground v.1.15,2013-08-09 09:52:00,
2013-08-09 05:53:00,71.3,70.7,29.95,South,182,0.0,0.0,98,0.00,,,0.00,Wunderground v.1.15,2013-08-09 09:53:00,
2013-08-09 05:55:00,71.2,70.3,29.95,South,182,0.0,0.0,97,0.00,,,0.00,Wunderground v.1.15,2013-08-09 09:55:00,
2013-08-09 05:57:00,71.2,70.3,29.95,South,182,0.0,0.0,97,0.00,,,0.00,Wunderground v.1.15,2013-08-09 09:57:00,
2013-08-09 05:58:00,71.1,70.2,29.95,South,182,0.0,0.0,97,0.00,,,0.00,Wunderground v.1.15,2013-08-09 09:58:00,
2013-08-09 06:02:00,71.0,70.1,29.95,South,182,0.0,0.0,97,0.00,,,0.00,Wunderground v.1.15,2013-08-09 10:02:00,
2013-08-09 06:03:00,71.0,70.1,29.95,South,182,0.0,0.0,97,0.00,,,0.00,Wunderground v.1.15,2013-08-09 10:03:00,
2013-08-09 06:07:00,70.9,70.0,29.95,South,182,0.0,0.0,97,0.00,,,0.00,Wunderground v.1.15,2013-08-09 10:07:00,
2013-08-09 06:08:00,71.0,70.1,29.95,South,182,0.0,0.0,97,0.00,,,0.00,Wunderground v.1.15,2013-08-09 10:08:00,
2013-08-09 06:09:00,71.0,70.1,29.95,South,182,0.0,0.0,97,0.00,,,0.00,Wunderground v.1.15,2013-08-09 10:09:00,
2013-08-09 06:12:00,71.1,70.5,29.95,South,182,0.0,0.0,98,0.00,,,0.00,Wunderground v.1.15,2013-08-09 10:12:00,
2013-08-09 06:13:00,71.1,70.5,29.95,South,182,0.0,0.0,98,0.00,,,0.00,Wunderground v.1.15,2013-08-09 10:13:00,
2013-08-09 06:14:00,71.1,70.5,29.95,South,182,0.0,0.0,98,0.00,,,0.00,Wunderground v.1.15,2013-08-09 10:14:00,
2013-08-09 06:17:00,71.1,70.5,29.95,South,182,0.0,0.0,98,0.00,,,0.00,Wunderground v.1.15,2013-08-09 10:17:00,
2013-08-09 06:19:00,71.1,70.5,29.95,South,182,0.0,0.0,98,0.00,,,0.00,Wunderground v.1.15,2013-08-09 10:19:00,
2013-08-09 06:20:00,71.0,70.1,29.95,South,182,0.0,0.0,97,0.00,,,0.00,Wunderground v.1.15,2013-08-09 10:20:00,
2013-08-09 06:23:00,71.0,70.1,29.95,South,182,0.0,0.0,97,0.00,,,0.00,Wunderground v.1.15,2013-08-09 10:23:00,
2013-08-09 06:24:00,70.9,70.0,29.95,South,182,0.0,0.0,97,0.00,,,0.00,Wunderground v.1.15,2013-08-09 10:24:00,
2013-08-09 06:25:00,70.8,69.9,29.95,South,182,0.0,0.0,97,0.00,,,0.00,Wunderground v.1.15,2013-08-09 10:25:00,
2013-08-09 06:28:00,70.8,69.9,29.95,South,182,0.0,0.0,97,0.00,,,0.00,Wunderground v.1.15,2013-08-09 10:28:00,
2013-08-09 06:29:00,70.8,69.9,29.95,South,182,0.0,0.0,97,0.00,,,0.00,Wunderground v.1.15,2013-08-09 10:29:00,
2013-08-09 06:30:00,70.8,69.9,29.96,South,182,0.0,0.0,97,0.00,,,0.00,Wunderground v.1.15,2013-08-09 10:30:00,
2013-08-09 06:31:00,70.7,69.8,29.96,South,182,0.0,0.0,97,0.00,,,0.00,Wunderground v.1.15,2013-08-09 10:31:00,
2013-08-09 06:33:00,70.7,70.1,29.95,South,182,0.0,0.0,98,0.00,,,0.00,Wunderground v.1.15,2013-08-09 10:33:00,
2013-08-09 06:34:00,70.8,70.2,29.96,South,182,0.0,0.0,98,0.00,,,0.00,Wunderground v.1.15,2013-08-09 10:34:00,
2013-08-09 06:35:00,70.7,70.1,29.96,South,182,0.0,0.0,98,0.00,,,0.00,Wunderground v.1.15,2013-08-09 10:35:00,
2013-08-09 06:36:00,70.7,70.1,29.96,South,182,0.0,0.0,98,0.00,,,0.00,Wunderground v.1.15,2013-08-09 10:36:00,
2013-08-09 06:38:00,70.8,70.2,29.96,South,182,0.0,0.0,98,0.00,,,0.00,Wunderground v.1.15,2013-08-09 10:38:00,
2013-08-09 06:39:00,70.8,70.2,29.96,South,182,0.0,0.0,98,0.00,,,0.00,Wunderground v.1.15,2013-08-09 10:39:00,
2013-08-09 06:40:00,70.8,70.2,29.96,South,182,0.0,0.0,98,0.00,,,0.00,Wunderground v.1.15,2013-08-09 10:40:00,
2013-08-09 06:41:00,70.8,70.2,29.96,South,182,0.0,0.0,98,0.00,,,0.00,Wunderground v.1.15,2013-08-09 10:41:00,
2013-08-09 06:43:00,70.8,70.2,29.96,South,182,0.0,0.0,98,0.00,,,0.00,Wunderground v.1.15,2013-08-09 10:43:00,
2013-08-09 06:44:00,70.8,70.2,29.96,South,182,0.0,0.0,98,0.00,,,0.00,Wunderground v.1.15,2013-08-09 10:44:00,
2013-08-09 06:46:00,70.8,70.2,29.96,South,182,0.0,0.0,98,0.00,,,0.00,Wunderground v.1.15,2013-08-09 10:46:00,
2013-08-09 06:47:00,70.7,69.8,29.96,South,182,0.0,0.0,97,0.00,,,0.00,Wunderground v.1.15,2013-08-09 10:47:00,
2013-08-09 06:48:00,70.7,69.8,29.96,South,182,0.0,0.0,97,0.00,,,0.00,Wunderground v.1.15,2013-08-09 10:48:00,
2013-08-09 06:49:00,70.7,69.8,29.96,South,182,0.0,0.0,97,0.00,,,0.00,Wunderground v.1.15,2013-08-09 10:49:00,
2013-08-09 06:51:00,70.7,70.1,29.95,South,182,0.0,0.0,98,0.00,,,0.00,Wunderground v.1.15,2013-08-09 10:51:00,
2013-08-09 06:52:00,70.6,70.0,29.96,South,182,0.0,0.0,98,0.00,,,0.00,Wunderground v.1.15,2013-08-09 10:52:00,
2013-08-09 06:53:00,70.7,70.1,29.96,South,182,0.0,0.0,98,0.00,,,0.00,Wunderground v.1.15,2013-08-09 10:53:00,
2013-08-09 06:54:00,70.7,70.1,29.96,South,182,0.0,0.0,98,0.00,,,0.00,Wunderground v.1.15,2013-08-09 10:54:00,
2013-08-09 06:57:00,70.8,70.2,29.96,South,182,0.0,0.0,98,0.00,,,0.00,Wunderground v.1.15,2013-08-09 10:57:00,
2013-08-09 06:58:00,70.8,70.2,29.96,South,182,0.0,0.0,98,0.00,,,0.00,Wunderground v.1.15,2013-08-09 10:58:00,
2013-08-09 06:59:00,70.8,70.2,29.96,South,182,0.0,0.0,98,0.00,,,0.00,Wunderground v.1.15,2013-08-09 10:59:00,
2013-08-09 07:00:00,70.8,70.2,29.96,South,182,0.0,0.0,98,0.00,,,0.00,Wunderground v.1.15,2013-08-09 11:00:00,
2013-08-09 07:02:00,70.9,70.3,29.96,South,182,0.0,0.0,98,0.00,,,0.00,Wunderground v.1.15,2013-08-09 11:02:00,
2013-08-09 07:03:00,70.9,70.3,29.96,South,182,0.0,0.0,98,0.00,,,0.00,Wunderground v.1.15,2013-08-09 11:03:00,
2013-08-09 07:04:00,70.9,70.3,29.96,South,182,0.0,0.0,98,0.00,,,0.00,Wunderground v.1.15,2013-08-09 11:04:00,
2013-08-09 07:05:00,71.0,70.4,29.96,South,182,0.0,0.0,98,0.00,,,0.00,Wunderground v.1.15,2013-08-09 11:05:00,
2013-08-09 07:07:00,71.0,70.4,29.96,South,182,0.0,0.0,98,0.00,,,0.00,Wunderground v.1.15,2013-08-09 11:07:00,
2013-08-09 07:08:00,71.0,70.4,29.96,South,182,0.0,0.0,98,0.00,,,0.00,Wunderground v.1.15,2013-08-09 11:08:00,
2013-08-09 07:09:00,71.1,70.5,29.96,South,182,0.0,0.0,98,0.00,,,0.00,Wunderground v.1.15,2013-08-09 11:09:00,
2013-08-09 07:10:00,71.2,70.6,29.96,South,182,0.0,0.0,98,0.00,,,0.00,Wunderground v.1.15,2013-08-09 11:10:00,
2013-08-09 07:11:00,71.3,70.7,29.96,South,182,0.0,0.0,98,0.00,,,0.00,Wunderground v.1.15,2013-08-09 11:11:00,
2013-08-09 07:13:00,71.3,70.7,29.96,South,182,0.0,0.0,98,0.00,,,0.00,Wunderground v.1.15,2013-08-09 11:13:00,
2013-08-09 07:14:00,71.3,70.7,29.96,South,182,0.0,0.0,98,0.00,,,0.00,Wunderground v.1.15,2013-08-09 11:14:00,
2013-08-09 07:15:00,71.3,70.7,29.97,South,182,0.0,0.0,98,0.00,,,0.00,Wunderground v.1.15,2013-08-09 11:15:00,
2013-08-09 07:17:00,71.3,70.7,29.97,South,182,0.0,0.0,98,0.00,,,0.00,Wunderground v.1.15,2013-08-09 11:17:00,
2013-08-09 07:18:00,71.3,70.7,29.97,South,182,0.0,0.0,98,0.00,,,0.00,Wunderground v.1.15,2013-08-09 11:18:00,
2013-08-09 07:19:00,71.3,70.7,29.97,South,182,0.0,0.0,98,0.00,,,0.00,Wunderground v.1.15,2013-08-09 11:19:00,
2013-08-09 07:20:00,71.3,70.7,29.97,South,182,0.0,0.0,98,0.00,,,0.00,Wunderground v.1.15,2013-08-09 11:20:00,
2013-08-09 07:22:00,71.3,70.7,29.97,South,182,0.0,0.0,98,0.00,,,0.00,Wunderground v.1.15,2013-08-09 11:22:00,
2013-08-09 07:23:00,71.3,70.7,29.97,South,182,0.0,0.0,98,0.00,,,0.00,Wunderground v.1.15,2013-08-09 11:23:00,
2013-08-09 07:24:00,71.3,70.7,29.97,South,182,0.0,0.0,98,0.00,,,0.00,Wunderground v.1.15,2013-08-09 11:24:00,
2013-08-09 07:25:00,71.3,70.7,29.97,South,182,0.0,0.0,98,0.00,,,0.00,Wunderground v.1.15,2013-08-09 11:25:00,
2013-08-09 07:27:00,71.3,70.7,29.97,South,182,0.0,0.0,98,0.00,,,0.00,Wunderground v.1.15,2013-08-09 11:27:00,
2013-08-09 07:29:00,71.3,70.7,29.97,South,182,0.0,0.0,98,0.00,,,0.00,Wunderground v.1.15,2013-08-09 11:29:00,
2013-08-09 07:31:00,71.4,70.8,29.97,South,182,0.0,0.0,98,0.00,,,0.00,Wunderground v.1.15,2013-08-09 11:31:00,
2013-08-09 07:33:00,71.5,70.9,29.97,South,182,0.0,0.0,98,0.00,,,0.00,Wunderground v.1.15,2013-08-09 11:33:00,
2013-08-09 07:34:00,71.5,70.9,29.97,South,182,0.0,0.0,98,0.00,,,0.00,Wunderground v.1.15,2013-08-09 11:34:00,
2013-08-09 07:35:00,71.5,70.9,29.98,South,182,0.0,0.0,98,0.00,,,0.00,Wunderground v.1.15,2013-08-09 11:35:00,
2013-08-09 07:37:00,71.6,71.0,29.98,South,182,0.0,0.0,98,0.00,,,0.00,Wunderground v.1.15,2013-08-09 11:37:00,
2013-08-09 07:38:00,71.7,71.1,29.98,South,182,0.0,0.0,98,0.00,,,0.00,Wunderground v.1.15,2013-08-09 11:38:00,
2013-08-09 07:39:00,71.7,71.1,29.98,South,182,0.0,0.0,98,0.00,,,0.00,Wunderground v.1.15,2013-08-09 11:39:00,
2013-08-09 07:41:00,71.7,71.1,29.98,South,182,0.0,0.0,98,0.00,,,0.00,Wunderground v.1.15,2013-08-09 11:41:00,
2013-08-09 07:42:00,71.7,71.1,29.98,South,182,0.0,0.0,98,0.00,,,0.00,Wunderground v.1.15,2013-08-09 11:42:00,
2013-08-09 07:43:00,71.7,71.1,29.98,South,182,0.0,0.0,98,0.00,,,0.00,Wunderground v.1.15,2013-08-09 11:43:00,
2013-08-09 07:44:00,71.8,71.2,29.98,South,182,0.0,0.0,98,0.00,,,0.00,Wunderground v.1.15,2013-08-09 11:44:00,
2013-08-09 07:46:00,71.8,71.2,29.98,South,182,0.0,0.0,98,0.00,,,0.00,Wunderground v.1.15,2013-08-09 11:46:00,
2013-08-09 07:47:00,71.8,71.2,29.98,South,182,0.0,0.0,98,0.00,,,0.00,Wunderground v.1.15,2013-08-09 11:47:00,
2013-08-09 07:48:00,71.8,71.2,29.98,South,182,0.0,0.0,98,0.00,,,0.00,Wunderground v.1.15,2013-08-09 11:48:00,
2013-08-09 07:49:00,71.8,71.2,29.98,South,182,0.0,0.0,98,0.00,,,0.00,Wunderground v.1.15,2013-08-09 11:49:00,
2013-08-09 07:52:00,71.9,71.3,29.98,South,182,0.0,0.0,98,0.00,,,0.00,Wunderground v.1.15,2013-08-09 11:52:00,
2013-08-09 07:53:00,71.9,71.3,29.98,South,182,0.0,0.0,98,0.00,,,0.00,Wunderground v.1.15,2013-08-09 11:53:00,
2013-08-09 07:55:00,72.0,71.4,29.99,South,182,0.0,0.0,98,0.00,,,0.00,Wunderground v.1.15,2013-08-09 11:55:00,
2013-08-09 07:57:00,72.0,71.4,29.98,South,182,0.0,0.0,98,0.00,,,0.00,Wunderground v.1.15,2013-08-09 11:57:00,
2013-08-09 07:58:00,72.1,71.5,29.98,South,182,0.0,0.0,98,0.00,,,0.00,Wunderground v.1.15,2013-08-09 11:58:00,
2013-08-09 07:59:00,72.1,71.5,29.99,South,182,0.0,0.0,98,0.00,,,0.00,Wunderground v.1.15,2013-08-09 11:59:00,
2013-08-09 08:01:00,72.1,71.5,29.99,South,182,0.0,0.0,98,0.00,,,0.00,Wunderground v.1.15,2013-08-09 12:01:00,
2013-08-09 08:02:00,72.2,71.6,29.99,South,182,0.0,0.0,98,0.00,,,0.00,Wunderground v.1.15,2013-08-09 12:02:00,
2013-08-09 08:03:00,72.2,71.6,29.99,South,182,0.0,0.0,98,0.00,,,0.00,Wunderground v.1.15,2013-08-09 12:03:00,
2013-08-09 08:05:00,72.2,71.6,29.99,South,182,0.0,0.0,98,0.00,,,0.00,Wunderground v.1.15,2013-08-09 12:05:00,
2013-08-09 08:06:00,72.2,71.6,29.99,South,182,0.0,0.0,98,0.00,,,0.00,Wunderground v.1.15,2013-08-09 12:06:00,
2013-08-09 08:07:00,72.2,71.6,29.99,South,182,0.0,0.0,98,0.00,,,0.00,Wunderground v.1.15,2013-08-09 12:07:00,
2013-08-09 08:09:00,72.2,71.6,29.99,South,182,0.0,0.0,98,0.00,,,0.00,Wunderground v.1.15,2013-08-09 12:09:00,
2013-08-09 08:10:00,72.2,71.6,29.99,South,182,0.0,0.0,98,0.00,,,0.00,Wunderground v.1.15,2013-08-09 12:10:00,
2013-08-09 08:12:00,72.2,71.6,29.99,South,182,0.0,0.0,98,0.00,,,0.00,Wunderground v.1.15,2013-08-09 12:12:00,
2013-08-09 08:13:00,72.2,71.6,29.99,South,182,0.0,0.0,98,0.00,,,0.00,Wunderground v.1.15,2013-08-09 12:13:00,
2013-08-09 08:14:00,72.2,71.6,29.99,South,182,0.0,0.0,98,0.00,,,0.00,Wunderground v.1.15,2013-08-09 12:14:00,
2013-08-09 08:15:00,72.3,71.7,29.99,South,182,0.0,0.0,98,0.00,,,0.00,Wunderground v.1.15,2013-08-09 12:15:00,
2013-08-09 08:17:00,72.3,71.7,29.99,South,182,0.0,0.0,98,0.00,,,0.00,Wunderground v.1.15,2013-08-09 12:17:00,
2013-08-09 08:18:00,72.3,71.7,29.99,South,182,0.0,0.0,98,0.00,,,0.00,Wunderground v.1.15,2013-08-09 12:18:00,
2013-08-09 08:19:00,72.3,71.7,30.00,South,182,0.0,0.0,98,0.00,,,0.00,Wunderground v.1.15,2013-08-09 12:19:00,
2013-08-09 08:20:00,72.4,71.8,30.00,South,182,0.0,0.0,98,0.00,,,0.00,Wunderground v.1.15,2013-08-09 12:20:00,
2013-08-09 08:22:00,72.4,71.8,30.00,South,182,0.0,0.0,98,0.00,,,0.00,Wunderground v.1.15,2013-08-09 12:22:00,
2013-08-09 08:23:00,72.4,71.8,30.00,South,182,0.0,0.0,98,0.00,,,0.00,Wunderground v.1.15,2013-08-09 12:23:00,
2013-08-09 08:24:00,72.4,71.8,29.99,South,182,0.0,0.0,98,0.00,,,0.00,Wunderground v.1.15,2013-08-09 12:24:00,
2013-08-09 08:26:00,72.4,71.8,30.00,South,182,0.0,0.0,98,0.00,,,0.00,Wunderground v.1.15,2013-08-09 12:26:00,
2013-08-09 08:27:00,72.4,71.8,30.00,South,182,0.0,0.0,98,0.00,,,0.00,Wunderground v.1.15,2013-08-09 12:27:00,
2013-08-09 08:28:00,72.5,71.9,30.00,South,182,0.0,0.0,98,0.00,,,0.00,Wunderground v.1.15,2013-08-09 12:28:00,
2013-08-09 08:29:00,72.5,71.9,30.00,South,182,0.0,0.0,98,0.00,,,0.00,Wunderground v.1.15,2013-08-09 12:29:00,
2013-08-09 08:31:00,72.5,71.9,29.99,South,182,0.0,0.0,98,0.00,,,0.00,Wunderground v.1.15,2013-08-09 12:31:00,
2013-08-09 08:33:00,72.6,72.0,30.00,South,182,0.0,0.0,98,0.00,,,0.00,Wunderground v.1.15,2013-08-09 12:33:00,
2013-08-09 08:34:00,72.6,72.0,30.00,South,182,0.0,0.0,98,0.00,,,0.00,Wunderground v.1.15,2013-08-09 12:34:00,
2013-08-09 08:37:00,72.8,72.2,30.00,South,182,0.0,0.0,98,0.00,,,0.00,Wunderground v.1.15,2013-08-09 12:37:00,
2013-08-09 08:38:00,72.8,72.2,30.00,South,182,0.0,0.0,98,0.00,,,0.00,Wunderground v.1.15,2013-08-09 12:38:00,
2013-08-09 08:39:00,72.9,72.3,30.00,South,182,0.0,0.0,98,0.00,,,0.00,Wunderground v.1.15,2013-08-09 12:39:00,
2013-08-09 08:42:00,73.0,72.4,30.00,South,182,0.0,0.0,98,0.00,,,0.00,Wunderground v.1.15,2013-08-09 12:42:00,
2013-08-09 08:43:00,73.1,72.5,30.00,South,182,0.0,0.0,98,0.00,,,0.00,Wunderground v.1.15,2013-08-09 12:43:00,
2013-08-09 08:44:00,73.1,72.5,30.00,South,182,0.0,0.0,98,0.00,,,0.00,Wunderground v.1.15,2013-08-09 12:44:00,
2013-08-09 08:45:00,73.1,72.5,30.00,South,182,0.0,0.0,98,0.00,,,0.00,Wunderground v.1.15,2013-08-09 12:45:00,
2013-08-09 08:47:00,73.1,72.5,30.00,South,182,0.0,0.0,98,0.00,,,0.00,Wunderground v.1.15,2013-08-09 12:47:00,
2013-08-09 08:48:00,73.2,72.6,30.00,South,182,0.0,0.0,98,0.00,,,0.00,Wunderground v.1.15,2013-08-09 12:48:00,
2013-08-09 08:49:00,73.3,72.7,30.00,South,182,0.0,0.0,98,0.00,,,0.00,Wunderground v.1.15,2013-08-09 12:49:00,
2013-08-09 08:50:00,73.3,72.7,30.00,South,182,0.0,0.0,98,0.00,,,0.00,Wunderground v.1.15,2013-08-09 12:50:00,
2013-08-09 08:52:00,73.4,72.8,30.00,South,182,0.0,0.0,98,0.00,,,0.00,Wunderground v.1.15,2013-08-09 12:52:00,
2013-08-09 08:53:00,73.5,72.9,30.00,South,182,0.0,0.0,98,0.00,,,0.00,Wunderground v.1.15,2013-08-09 12:53:00,
2013-08-09 08:55:00,73.6,73.0,30.00,South,182,0.0,0.0,98,0.00,,,0.00,Wunderground v.1.15,2013-08-09 12:55:00,
2013-08-09 08:57:00,73.8,73.2,30.00,South,182,0.0,0.0,98,0.00,,,0.00,Wunderground v.1.15,2013-08-09 12:57:00,
2013-08-09 08:59:00,73.9,73.3,30.00,South,182,0.0,0.0,98,0.00,,,0.00,Wunderground v.1.15,2013-08-09 12:59:00,
2013-08-09 09:00:00,73.9,73.3,30.00,South,182,0.0,0.0,98,0.00,,,0.00,Wunderground v.1.15,2013-08-09 13:00:00,
2013-08-09 09:01:00,73.9,73.3,30.00,South,182,0.0,0.0,98,0.00,,,0.00,Wunderground v.1.15,2013-08-09 13:01:00,
2013-08-09 09:02:00,73.9,73.3,30.00,South,182,0.0,0.0,98,0.00,,,0.00,Wunderground v.1.15,2013-08-09 13:02:00,
2013-08-09 09:04:00,73.9,73.3,30.00,South,182,0.0,0.0,98,0.00,,,0.00,Wunderground v.1.15,2013-08-09 13:04:00,
2013-08-09 09:05:00,73.9,73.3,30.00,South,182,0.0,0.0,98,0.00,,,0.00,Wunderground v.1.15,2013-08-09 13:05:00,
2013-08-09 09:06:00,73.9,73.3,30.00,South,182,0.0,0.0,98,0.00,,,0.00,Wunderground v.1.15,2013-08-09 13:06:00,
2013-08-09 09:08:00,73.8,72.9,30.00,South,182,0.0,0.0,97,0.00,,,0.00,Wunderground v.1.15,2013-08-09 13:08:00,
2013-08-09 09:10:00,73.8,72.9,30.00,South,182,0.0,0.0,97,0.00,,,0.00,Wunderground v.1.15,2013-08-09 13:10:00,
2013-08-09 09:11:00,73.8,72.9,30.00,South,182,0.0,0.0,97,0.00,,,0.00,Wunderground v.1.15,2013-08-09 13:11:00,
2013-08-09 09:14:00,73.9,73.0,30.00,South,182,0.0,0.0,97,0.00,,,0.00,Wunderground v.1.15,2013-08-09 13:14:00,
2013-08-09 09:15:00,74.0,73.1,30.00,South,182,0.0,0.0,97,0.00,,,0.00,Wunderground v.1.15,2013-08-09 13:15:00,
2013-08-09 09:16:00,74.0,73.1,30.00,South,182,0.0,0.0,97,0.00,,,0.00,Wunderground v.1.15,2013-08-09 13:16:00,
2013-08-09 09:17:00,74.0,73.1,30.00,South,182,0.0,0.0,97,0.00,,,0.00,Wunderground v.1.15,2013-08-09 13:17:00,
2013-08-09 09:19:00,74.0,73.1,30.00,South,182,0.0,0.0,97,0.00,,,0.00,Wunderground v.1.15,2013-08-09 13:19:00,
2013-08-09 09:20:00,74.0,73.1,30.00,South,182,0.0,0.0,97,0.00,,,0.00,Wunderground v.1.15,2013-08-09 13:20:00,
2013-08-09 09:22:00,74.1,73.2,30.00,South,182,0.0,0.0,97,0.00,,,0.00,Wunderground v.1.15,2013-08-09 13:22:00,
2013-08-09 09:23:00,74.2,73.3,30.00,South,182,0.0,0.0,97,0.00,,,0.00,Wunderground v.1.15,2013-08-09 13:23:00,
2013-08-09 09:24:00,74.3,73.4,30.00,South,182,0.0,0.0,97,0.00,,,0.00,Wunderground v.1.15,2013-08-09 13:24:00,
2013-08-09 09:26:00,74.4,73.8,30.00,South,182,0.0,0.0,98,0.00,,,0.00,Wunderground v.1.15,2013-08-09 13:26:00,
2013-08-09 09:27:00,74.5,73.9,30.00,South,182,0.0,0.0,98,0.00,,,0.00,Wunderground v.1.15,2013-08-09 13:27:00,
2013-08-09 09:28:00,74.6,74.0,30.00,South,182,0.0,0.0,98,0.00,,,0.00,Wunderground v.1.15,2013-08-09 13:28:00,
2013-08-09 09:29:00,74.6,73.7,30.00,South,182,0.0,0.0,97,0.00,,,0.00,Wunderground v.1.15,2013-08-09 13:29:00,
2013-08-09 09:31:00,74.7,73.8,30.00,South,182,0.0,0.0,97,0.00,,,0.00,Wunderground v.1.15,2013-08-09 13:31:00,
2013-08-09 09:32:00,74.8,73.9,30.00,South,182,0.0,0.0,97,0.00,,,0.00,Wunderground v.1.15,2013-08-09 13:32:00,
2013-08-09 09:33:00,74.8,73.9,30.00,South,182,0.0,0.0,97,0.00,,,0.00,Wunderground v.1.15,2013-08-09 13:33:00,
2013-08-09 09:34:00,74.8,73.6,30.00,South,182,0.0,0.0,96,0.00,,,0.00,Wunderground v.1.15,2013-08-09 13:34:00,
2013-08-09 09:36:00,74.9,73.7,30.00,South,182,0.0,0.0,96,0.00,,,0.00,Wunderground v.1.15,2013-08-09 13:36:00,
2013-08-09 09:37:00,75.0,73.8,30.00,South,182,0.0,0.0,96,0.00,,,0.00,Wunderground v.1.15,2013-08-09 13:37:00,
2013-08-09 09:38:00,75.1,73.9,30.00,South,182,0.0,0.0,96,0.00,,,0.00,Wunderground v.1.15,2013-08-09 13:38:00,
2013-08-09 09:39:00,75.2,74.0,30.00,South,182,0.0,0.0,96,0.00,,,0.00,Wunderground v.1.15,2013-08-09 13:39:00,
2013-08-09 09:42:00,75.5,74.3,30.00,South,182,0.0,0.0,96,0.00,,,0.00,Wunderground v.1.15,2013-08-09 13:42:00,
2013-08-09 09:44:00,75.7,74.8,30.00,South,182,0.0,0.0,97,0.00,,,0.00,Wunderground v.1.15,2013-08-09 13:44:00,
2013-08-09 09:47:00,76.1,74.9,30.00,South,182,0.0,0.0,96,0.00,,,0.00,Wunderground v.1.15,2013-08-09 13:47:00,
2013-08-09 09:48:00,76.2,75.0,30.00,South,182,0.0,0.0,96,0.00,,,0.00,Wunderground v.1.15,2013-08-09 13:48:00,
2013-08-09 09:50:00,76.4,74.9,30.00,South,182,0.0,0.0,95,0.00,,,0.00,Wunderground v.1.15,2013-08-09 13:50:00,
2013-08-09 09:52:00,76.7,75.2,30.00,South,182,0.0,0.0,95,0.00,,,0.00,Wunderground v.1.15,2013-08-09 13:52:00,
2013-08-09 09:53:00,76.8,75.3,30.00,South,182,0.0,0.0,95,0.00,,,0.00,Wunderground v.1.15,2013-08-09 13:53:00,
2013-08-09 09:55:00,76.9,75.0,30.00,South,182,0.0,0.0,94,0.00,,,0.00,Wunderground v.1.15,2013-08-09 13:55:00,
2013-08-09 09:57:00,77.0,75.1,30.00,South,182,0.0,0.0,94,0.00,,,0.00,Wunderground v.1.15,2013-08-09 13:57:00,
2013-08-09 09:58:00,77.0,75.1,29.99,South,182,0.0,0.0,94,0.00,,,0.00,Wunderground v.1.15,2013-08-09 13:58:00,
2013-08-09 10:00:00,77.1,74.9,30.00,South,182,0.0,0.0,93,0.00,,,0.00,Wunderground v.1.15,2013-08-09 14:00:00,
2013-08-09 10:03:00,77.3,75.1,29.99,South,182,0.0,0.0,93,0.00,,,0.00,Wunderground v.1.15,2013-08-09 14:03:00,
2013-08-09 10:04:00,77.4,74.9,29.99,South,182,0.0,0.0,92,0.00,,,0.00,Wunderground v.1.15,2013-08-09 14:04:00,
2013-08-09 10:05:00,77.5,75.3,29.99,South,182,0.0,0.0,93,0.00,,,0.00,Wunderground v.1.15,2013-08-09 14:05:00,
2013-08-09 10:08:00,77.7,75.5,29.99,South,182,0.0,0.0,93,0.00,,,0.00,Wunderground v.1.15,2013-08-09 14:08:00,
2013-08-09 10:09:00,77.9,75.7,29.99,South,182,0.0,0.0,93,0.00,,,0.00,Wunderground v.1.15,2013-08-09 14:09:00,
2013-08-09 10:10:00,78.0,75.8,29.99,South,182,0.0,0.0,93,0.00,,,0.00,Wunderground v.1.15,2013-08-09 14:10:00,
2013-08-09 10:14:00,78.3,76.1,29.99,South,182,0.0,0.0,93,0.00,,,0.00,Wunderground v.1.15,2013-08-09 14:14:00,
2013-08-09 10:15:00,78.4,75.9,29.99,South,182,0.0,0.0,92,0.00,,,0.00,Wunderground v.1.15,2013-08-09 14:15:00,
2013-08-09 10:19:00,78.8,75.6,29.99,South,182,0.0,0.0,90,0.00,,,0.00,Wunderground v.1.15,2013-08-09 14:19:00,
2013-08-09 10:20:00,79.0,76.1,29.99,South,182,0.0,0.0,91,0.00,,,0.00,Wunderground v.1.15,2013-08-09 14:20:00,
2013-08-09 10:21:00,79.1,76.2,29.99,South,182,0.0,0.0,91,0.00,,,0.00,Wunderground v.1.15,2013-08-09 14:21:00,
2013-08-09 10:24:00,79.5,76.3,30.00,South,182,0.0,0.0,90,0.00,,,0.00,Wunderground v.1.15,2013-08-09 14:24:00,
2013-08-09 10:25:00,79.6,76.4,30.00,South,182,0.0,0.0,90,0.00,,,0.00,Wunderground v.1.15,2013-08-09 14:25:00,
2013-08-09 10:26:00,79.6,76.1,30.00,South,182,0.0,0.0,89,0.00,,,0.00,Wunderground v.1.15,2013-08-09 14:26:00,
2013-08-09 10:30:00,80.1,76.9,30.00,South,182,0.0,0.0,90,0.00,,,0.00,Wunderground v.1.15,2013-08-09 14:30:00,
2013-08-09 10:31:00,80.2,77.0,30.00,South,182,0.0,0.0,90,0.00,,,0.00,Wunderground v.1.15,2013-08-09 14:31:00,
2013-08-09 10:35:00,80.7,77.2,30.00,South,182,0.0,0.0,89,0.00,,,0.00,Wunderground v.1.15,2013-08-09 14:35:00,
2013-08-09 10:36:00,80.8,77.3,30.00,South,182,0.0,0.0,89,0.00,,,0.00,Wunderground v.1.15,2013-08-09 14:36:00,
2013-08-09 10:37:00,80.9,77.4,30.00,South,182,0.0,0.0,89,0.00,,,0.00,Wunderground v.1.15,2013-08-09 14:37:00,
2013-08-09 10:41:00,81.3,77.4,30.00,South,182,0.0,0.0,88,0.00,,,0.00,Wunderground v.1.15,2013-08-09 14:41:00,
2013-08-09 10:42:00,81.4,77.5,29.99,South,182,0.0,0.0,88,0.00,,,0.00,Wunderground v.1.15,2013-08-09 14:42:00,
2013-08-09 10:46:00,81.8,77.2,29.99,South,182,0.0,0.0,86,0.00,,,0.00,Wunderground v.1.15,2013-08-09 14:46:00,
2013-08-09 10:47:00,81.9,77.6,29.99,South,182,0.0,0.0,87,0.00,,,0.00,Wunderground v.1.15,2013-08-09 14:47:00,
2013-08-09 10:51:00,82.1,76.8,29.99,South,182,0.0,0.0,84,0.00,,,0.00,Wunderground v.1.15,2013-08-09 14:51:00,
2013-08-09 10:52:00,82.1,76.8,29.99,South,182,0.0,0.0,84,0.00,,,0.00,Wunderground v.1.15,2013-08-09 14:52:00,
2013-08-09 10:54:00,82.2,77.2,29.99,South,182,0.0,0.0,85,0.00,,,0.00,Wunderground v.1.15,2013-08-09 14:54:00,
2013-08-09 10:56:00,82.3,76.6,29.99,South,182,3.0,6.0,83,0.00,,,0.00,Wunderground v.1.15,2013-08-09 14:56:00,
2013-08-09 10:57:00,82.4,77.1,29.99,South,182,2.0,6.0,84,0.00,,,0.00,Wunderground v.1.15,2013-08-09 14:57:00,
2013-08-09 10:58:00,82.4,77.1,29.99,South,182,4.0,6.0,84,0.00,,,0.00,Wunderground v.1.15,2013-08-09 14:58:00,
2013-08-09 10:59:00,82.4,77.1,29.99,South,182,0.0,6.0,84,0.00,,,0.00,Wunderground v.1.15,2013-08-09 14:59:00,
2013-08-09 11:01:00,82.5,77.5,30.00,South,182,3.0,4.0,85,0.00,,,0.00,Wunderground v.1.15,2013-08-09 15:01:00,
2013-08-09 11:02:00,82.5,76.8,29.99,South,182,1.0,4.0,83,0.00,,,0.00,Wunderground v.1.15,2013-08-09 15:02:00,
2013-08-09 11:03:00,82.5,76.8,29.99,South,182,1.0,4.0,83,0.00,,,0.00,Wunderground v.1.15,2013-08-09 15:03:00,
2013-08-09 11:04:00,82.5,76.8,29.99,South,182,0.0,4.0,83,0.00,,,0.00,Wunderground v.1.15,2013-08-09 15:04:00,
2013-08-09 11:06:00,82.7,77.7,29.99,South,182,2.0,4.0,85,0.00,,,0.00,Wunderground v.1.15,2013-08-09 15:06:00,
2013-08-09 11:07:00,82.7,77.4,29.99,South,182,1.0,4.0,84,0.00,,,0.00,Wunderground v.1.15,2013-08-09 15:07:00,
2013-08-09 11:09:00,82.7,77.4,29.99,South,182,4.0,4.0,84,0.00,,,0.00,Wunderground v.1.15,2013-08-09 15:09:00,
2013-08-09 11:10:00,82.7,77.0,29.99,South,183,5.0,8.0,83,0.00,,,0.00,Wunderground v.1.15,2013-08-09 15:10:00,
2013-08-09 11:11:00,82.7,77.0,29.99,South,183,3.0,8.0,83,0.00,,,0.00,Wunderground v.1.15,2013-08-09 15:11:00,
2013-08-09 11:12:00,82.7,77.0,29.99,South,183,1.0,8.0,83,0.00,,,0.00,Wunderground v.1.15,2013-08-09 15:12:00,
2013-08-09 11:13:00,82.8,77.8,30.00,South,183,7.0,8.0,85,0.00,,,0.00,Wunderground v.1.15,2013-08-09 15:13:00,
2013-08-09 11:14:00,82.9,77.2,29.99,South,183,3.0,8.0,83,0.00,,,0.00,Wunderground v.1.15,2013-08-09 15:14:00,
2013-08-09 11:15:00,83.0,78.0,29.99,South,183,2.0,8.0,85,0.00,,,0.00,Wunderground v.1.15,2013-08-09 15:15:00,
2013-08-09 11:17:00,83.2,78.6,30.00,South,183,1.0,8.0,86,0.00,,,0.00,Wunderground v.1.15,2013-08-09 15:17:00,
2013-08-09 11:18:00,83.4,78.4,29.99,South,183,1.0,8.0,85,0.00,,,0.00,Wunderground v.1.15,2013-08-09 15:18:00,
2013-08-09 11:19:00,83.5,78.2,30.00,South,183,1.0,3.0,84,0.00,,,0.00,Wunderground v.1.15,2013-08-09 15:19:00,
2013-08-09 11:20:00,83.5,77.4,30.00,South,183,0.0,3.0,82,0.00,,,0.00,Wunderground v.1.15,2013-08-09 15:20:00,
2013-08-09 11:22:00,83.5,77.8,30.00,South,183,1.0,3.0,83,0.00,,,0.00,Wunderground v.1.15,2013-08-09 15:22:00,
2013-08-09 11:24:00,83.6,77.9,30.00,South,183,2.0,3.0,83,0.00,,,0.00,Wunderground v.1.15,2013-08-09 15:24:00,
2013-08-09 11:26:00,83.5,77.8,30.00,South,183,0.0,3.0,83,0.00,,,0.00,Wunderground v.1.15,2013-08-09 15:26:00,
2013-08-09 11:27:00,83.5,77.8,30.00,South,183,0.0,3.0,83,0.00,,,0.00,Wunderground v.1.15,2013-08-09 15:27:00,
2013-08-09 11:28:00,83.5,77.4,30.00,South,183,0.0,3.0,82,0.00,,,0.00,Wunderground v.1.15,2013-08-09 15:28:00,
2013-08-09 11:30:00,83.5,78.2,30.00,South,183,0.0,1.0,84,0.00,,,0.00,Wunderground v.1.15,2013-08-09 15:30:00,
2013-08-09 11:31:00,83.5,78.2,30.00,South,183,0.0,1.0,84,0.00,,,0.00,Wunderground v.1.15,2013-08-09 15:31:00,
2013-08-09 11:32:00,83.6,78.2,29.99,South,183,1.0,2.0,84,0.00,,,0.00,Wunderground v.1.15,2013-08-09 15:32:00,
2013-08-09 11:33:00,83.6,78.2,29.99,South,183,1.0,2.0,84,0.00,,,0.00,Wunderground v.1.15,2013-08-09 15:33:00,
2013-08-09 11:36:00,83.7,78.0,29.99,South,183,1.0,2.0,83,0.00,,,0.00,Wunderground v.1.15,2013-08-09 15:36:00,
2013-08-09 11:37:00,83.8,78.1,30.00,South,183,1.0,4.0,83,0.00,,,0.00,Wunderground v.1.15,2013-08-09 15:37:00,
2013-08-09 11:38:00,83.8,78.4,29.99,South,183,0.0,4.0,84,0.00,,,0.00,Wunderground v.1.15,2013-08-09 15:38:00,
2013-08-09 11:41:00,83.9,78.2,29.99,South,183,3.0,3.0,83,0.00,,,0.00,Wunderground v.1.15,2013-08-09 15:41:00,
2013-08-09 11:42:00,83.9,78.2,30.00,South,183,0.0,4.0,83,0.00,,,0.00,Wunderground v.1.15,2013-08-09 15:42:00,
2013-08-09 11:43:00,84.0,78.3,30.00,South,183,1.0,4.0,83,0.00,,,0.00,Wunderground v.1.15,2013-08-09 15:43:00,
2013-08-09 11:46:00,84.1,78.7,30.00,South,183,1.0,4.0,84,0.00,,,0.00,Wunderground v.1.15,2013-08-09 15:46:00,
2013-08-09 11:47:00,84.2,78.8,30.00,South,183,2.0,4.0,84,0.00,,,0.00,Wunderground v.1.15,2013-08-09 15:47:00,
2013-08-09 11:48:00,84.3,78.6,30.00,South,183,1.0,4.0,83,0.00,,,0.00,Wunderground v.1.15,2013-08-09 15:48:00,
2013-08-09 11:49:00,84.4,78.7,30.00,South,183,0.0,1.0,83,0.00,,,0.00,Wunderground v.1.15,2013-08-09 15:49:00,
2013-08-09 11:52:00,84.7,79.0,30.00,South,183,1.0,2.0,83,0.00,,,0.00,Wunderground v.1.15,2013-08-09 15:52:00,
2013-08-09 11:53:00,84.7,77.5,29.99,South,183,1.0,4.0,79,0.00,,,0.00,Wunderground v.1.15,2013-08-09 15:53:00,
2013-08-09 11:54:00,84.8,78.7,29.99,South,183,1.0,4.0,82,0.00,,,0.00,Wunderground v.1.15,2013-08-09 15:54:00,
2013-08-09 11:57:00,85.0,78.9,29.99,South,183,0.0,4.0,82,0.00,,,0.00,Wunderground v.1.15,2013-08-09 15:57:00,
2013-08-09 11:58:00,85.1,78.2,29.99,South,183,1.0,4.0,80,0.00,,,0.00,Wunderground v.1.15,2013-08-09 15:58:00,
2013-08-09 11:59:00,85.2,79.1,29.99,South,183,1.0,4.0,82,0.00,,,0.00,Wunderground v.1.15,2013-08-09 15:59:00,
2013-08-09 12:00:00,85.3,78.0,29.99,South,183,2.0,3.0,79,0.00,,,0.00,Wunderground v.1.15,2013-08-09 16:00:00,
2013-08-09 12:02:00,85.4,78.5,29.99,South,183,4.0,5.0,80,0.00,,,0.00,Wunderground v.1.15,2013-08-09 16:02:00,
2013-08-09 12:03:00,85.4,78.1,29.99,South,183,4.0,5.0,79,0.00,,,0.00,Wunderground v.1.15,2013-08-09 16:03:00,
2013-08-09 12:04:00,85.4,78.1,29.99,South,183,3.0,5.0,79,0.00,,,0.00,Wunderground v.1.15,2013-08-09 16:04:00,
2013-08-09 12:05:00,85.5,77.9,29.99,South,184,5.0,7.0,78,0.00,,,0.00,Wunderground v.1.15,2013-08-09 16:05:00,
2013-08-09 12:07:00,85.3,77.3,29.99,South,184,5.0,7.0,77,0.00,,,0.00,Wunderground v.1.15,2013-08-09 16:07:00,
2013-08-09 12:08:00,85.2,77.2,29.99,South,184,3.0,7.0,77,0.00,,,0.00,Wunderground v.1.15,2013-08-09 16:08:00,
2013-08-09 12:09:00,85.1,77.1,29.99,South,187,9.0,10.0,77,0.00,,,0.00,Wunderground v.1.15,2013-08-09 16:09:00,
2013-08-09 12:12:00,84.9,77.3,29.99,SSW,200,4.0,14.0,78,0.00,,,0.00,Wunderground v.1.15,2013-08-09 16:12:00,
2013-08-09 12:13:00,84.9,77.3,29.99,SSW,201,7.0,14.0,78,0.00,,,0.00,Wunderground v.1.15,2013-08-09 16:13:00,
2013-08-09 12:14:00,84.9,77.3,29.99,SSW,201,6.0,14.0,78,0.00,,,0.00,Wunderground v.1.15,2013-08-09 16:14:00,
2013-08-09 12:15:00,84.9,77.7,29.99,SSW,201,3.0,14.0,79,0.00,,,0.00,Wunderground v.1.15,2013-08-09 16:15:00,
2013-08-09 12:18:00,85.1,78.6,29.99,SSW,201,2.0,14.0,81,0.00,,,0.00,Wunderground v.1.15,2013-08-09 16:18:00,
2013-08-09 12:19:00,85.2,77.2,29.98,SSW,201,2.0,4.0,77,0.00,,,0.00,Wunderground v.1.15,2013-08-09 16:19:00,
2013-08-09 12:20:00,85.2,77.2,29.98,SSW,201,3.0,7.0,77,0.00,,,0.00,Wunderground v.1.15,2013-08-09 16:20:00,
2013-08-09 12:23:00,85.4,77.4,29.98,SSW,201,11.0,11.0,77,0.00,,,0.00,Wunderground v.1.15,2013-08-09 16:23:00,
2013-08-09 12:24:00,85.2,76.8,29.98,SSW,202,1.0,11.0,76,0.00,,,0.00,Wunderground v.1.15,2013-08-09 16:24:00,
2013-08-09 12:25:00,85.2,76.8,29.98,SSW,202,2.0,11.0,76,0.00,,,0.00,Wunderground v.1.15,2013-08-09 16:25:00,
2013-08-09 12:28:00,85.3,76.9,29.98,SSW,202,3.0,11.0,76,0.00,,,0.00,Wunderground v.1.15,2013-08-09 16:28:00,
2013-08-09 12:29:00,85.4,77.4,29.98,SSW,202,2.0,11.0,77,0.00,,,0.00,Wunderground v.1.15,2013-08-09 16:29:00,
2013-08-09 12:30:00,85.4,78.1,29.98,SSW,202,6.0,6.0,79,0.00,,,0.00,Wunderground v.1.15,2013-08-09 16:30:00,
2013-08-09 12:34:00,85.4,77.4,29.98,SSW,202,5.0,6.0,77,0.00,,,0.00,Wunderground v.1.15,2013-08-09 16:34:00,
2013-08-09 12:35:00,85.4,77.4,29.98,SSW,202,4.0,6.0,77,0.00,,,0.00,Wunderground v.1.15,2013-08-09 16:35:00,
2013-08-09 12:39:00,85.5,79.7,29.98,SSW,202,0.0,6.0,83,0.00,,,0.00,Wunderground v.1.15,2013-08-09 16:39:00,
2013-08-09 12:40:00,85.6,79.8,29.98,SSW,202,1.0,3.0,83,0.00,,,0.00,Wunderground v.1.15,2013-08-09 16:40:00,
2013-08-09 12:41:00,85.7,79.2,29.98,SSW,202,1.0,3.0,81,0.00,,,0.00,Wunderground v.1.15,2013-08-09 16:41:00,
2013-08-09 12:45:00,86.1,78.8,29.98,SSW,203,1.0,6.0,79,0.00,,,0.00,Wunderground v.1.15,2013-08-09 16:45:00,
2013-08-09 12:46:00,86.3,79.4,29.98,SSW,203,0.0,6.0,80,0.00,,,0.00,Wunderground v.1.15,2013-08-09 16:46:00,
2013-08-09 12:50:00,86.8,79.9,29.97,SSW,203,4.0,6.0,80,0.00,,,0.00,Wunderground v.1.15,2013-08-09 16:50:00,
2013-08-09 12:51:00,86.9,78.8,29.97,SSW,204,9.0,9.0,77,0.00,,,0.00,Wunderground v.1.15,2013-08-09 16:51:00,
2013-08-09 12:52:00,86.9,78.4,29.97,SSW,203,2.0,11.0,76,0.00,,,0.00,Wunderground v.1.15,2013-08-09 16:52:00,
2013-08-09 12:55:00,87.1,78.6,29.97,SSW,204,7.0,11.0,76,0.00,,,0.00,Wunderground v.1.15,2013-08-09 16:55:00,
2013-08-09 12:56:00,87.1,78.6,29.97,SSW,204,9.0,11.0,76,0.00,,,0.00,Wunderground v.1.15,2013-08-09 16:56:00,
2013-08-09 12:57:00,87.0,77.3,29.97,SSW,203,6.0,11.0,73,0.00,,,0.00,Wunderground v.1.15,2013-08-09 16:57:00,
2013-08-09 12:58:00,86.9,77.2,29.97,SSW,203,3.0,11.0,73,0.00,,,0.00,Wunderground v.1.15,2013-08-09 16:58:00,
2013-08-09 13:00:00,86.7,77.4,29.97,SSW,204,5.0,6.0,74,0.00,,,0.00,Wunderground v.1.15,2013-08-09 17:00:00,
2013-08-09 13:01:00,86.7,78.6,29.97,SSW,203,1.0,6.0,77,0.00,,,0.00,Wunderground v.1.15,2013-08-09 17:01:00,
2013-08-09 13:02:00,86.7,78.6,29.97,SSW,204,2.0,6.0,77,0.00,,,0.00,Wunderground v.1.15,2013-08-09 17:02:00,
2013-08-09 13:03:00,86.7,78.2,29.97,SSW,204,2.0,6.0,76,0.00,,,0.00,Wunderground v.1.15,2013-08-09 17:03:00,
2013-08-09 13:06:00,86.7,77.4,29.97,SSW,204,4.0,6.0,74,0.00,,,0.00,Wunderground v.1.15,2013-08-09 17:06:00,
2013-08-09 13:07:00,86.7,77.8,29.97,SSW,203,3.0,6.0,75,0.00,,,0.00,Wunderground v.1.15,2013-08-09 17:07:00,
2013-08-09 13:08:00,86.8,77.5,29.97,SSW,203,4.0,6.0,74,0.00,,,0.00,Wunderground v.1.15,2013-08-09 17:08:00,
2013-08-09 13:11:00,86.8,77.1,29.96,SSW,205,0.0,9.0,73,0.00,,,0.00,Wunderground v.1.15,2013-08-09 17:11:00,
2013-08-09 13:12:00,86.8,78.3,29.97,SSW,205,0.0,9.0,76,0.00,,,0.00,Wunderground v.1.15,2013-08-09 17:12:00,
2013-08-09 13:13:00,86.8,78.3,29.96,SSW,205,3.0,9.0,76,0.00,,,0.00,Wunderground v.1.15,2013-08-09 17:13:00,
2013-08-09 13:17:00,86.8,77.1,29.97,SSW,204,1.0,9.0,73,0.00,,,0.00,Wunderground v.1.15,2013-08-09 17:17:00,
2013-08-09 13:18:00,86.8,78.3,29.97,SSW,203,1.0,9.0,76,0.00,,,0.00,Wunderground v.1.15,2013-08-09 17:18:00,
2013-08-09 13:22:00,86.8,77.5,29.97,SSW,203,1.0,3.0,74,0.00,,,0.00,Wunderground v.1.15,2013-08-09 17:22:00,
2013-08-09 13:23:00,86.8,77.5,29.97,SSW,203,1.0,3.0,74,0.00,,,0.00,Wunderground v.1.15,2013-08-09 17:23:00,
2013-08-09 13:24:00,86.7,77.4,29.96,SSW,203,0.0,3.0,74,0.00,,,0.00,Wunderground v.1.15,2013-08-09 17:24:00,
2013-08-09 13:28:00,86.6,77.7,29.96,SSW,203,1.0,3.0,75,0.00,,,0.00,Wunderground v.1.15,2013-08-09 17:28:00,
2013-08-09 13:29:00,86.6,77.3,29.97,SSW,204,2.0,5.0,74,0.00,,,0.00,Wunderground v.1.15,2013-08-09 17:29:00,
2013-08-09 13:33:00,86.9,78.4,29.97,SSW,205,1.0,2.0,76,0.00,,,0.00,Wunderground v.1.15,2013-08-09 17:33:00,
2013-08-09 13:34:00,87.0,77.7,29.97,SSW,205,2.0,3.0,74,0.00,,,0.00,Wunderground v.1.15,2013-08-09 17:34:00,
2013-08-09 13:38:00,87.1,77.8,29.96,SSW,205,5.0,6.0,74,0.00,,,0.00,Wunderground v.1.15,2013-08-09 17:38:00,
2013-08-09 13:39:00,87.1,77.4,29.96,SSW,205,3.0,6.0,73,0.00,,,0.00,Wunderground v.1.15,2013-08-09 17:39:00,
2013-08-09 13:43:00,87.2,77.1,29.97,SSW,205,1.0,10.0,72,0.00,,,0.00,Wunderground v.1.15,2013-08-09 17:43:00,
2013-08-09 13:44:00,87.2,78.3,29.97,SSW,205,2.0,10.0,75,0.00,,,0.00,Wunderground v.1.15,2013-08-09 17:44:00,
2013-08-09 13:48:00,87.2,78.7,29.97,SSW,205,1.0,10.0,76,0.00,,,0.00,Wunderground v.1.15,2013-08-09 17:48:00,
2013-08-09 13:49:00,87.4,78.1,29.97,SSW,205,1.0,3.0,74,0.00,,,0.00,Wunderground v.1.15,2013-08-09 17:49:00,
2013-08-09 13:50:00,87.4,78.1,29.97,SSW,205,0.0,3.0,74,0.00,,,0.00,Wunderground v.1.15,2013-08-09 17:50:00,
2013-08-09 13:53:00,87.7,78.0,29.96,SSW,205,0.0,3.0,73,0.00,,,0.00,Wunderground v.1.15,2013-08-09 17:53:00,
2013-08-09 13:54:00,87.7,78.0,29.96,SSW,205,1.0,3.0,73,0.00,,,0.00,Wunderground v.1.15,2013-08-09 17:54:00,
2013-08-09 13:55:00,87.8,78.1,29.96,SSW,205,0.0,3.0,73,0.00,,,0.00,Wunderground v.1.15,2013-08-09 17:55:00,
2013-08-09 13:58:00,88.1,78.8,29.96,SSW,205,2.0,4.0,74,0.00,,,0.00,Wunderground v.1.15,2013-08-09 17:58:00,
2013-08-09 13:59:00,88.2,78.0,29.96,SSW,205,0.0,1.0,72,0.00,,,0.00,Wunderground v.1.15,2013-08-09 17:59:00,
2013-08-09 14:00:00,88.2,78.0,29.96,SSW,205,1.0,2.0,72,0.00,,,0.00,Wunderground v.1.15,2013-08-09 18:00:00,
2013-08-09 14:03:00,88.4,79.5,29.96,SSW,205,1.0,4.0,75,0.00,,,0.00,Wunderground v.1.15,2013-08-09 18:03:00,
2013-08-09 14:05:00,88.5,78.3,29.96,SSW,205,1.0,4.0,72,0.00,,,0.00,Wunderground v.1.15,2013-08-09 18:05:00,
2013-08-09 14:06:00,88.6,78.4,29.96,SSW,205,1.0,4.0,72,0.00,,,0.00,Wunderground v.1.15,2013-08-09 18:06:00,
2013-08-09 14:09:00,88.8,78.2,29.96,SSW,205,0.0,5.0,71,0.00,,,0.00,Wunderground v.1.15,2013-08-09 18:09:00,
2013-08-09 14:10:00,88.8,78.6,29.96,SSW,205,5.0,6.0,72,0.00,,,0.00,Wunderground v.1.15,2013-08-09 18:10:00,
2013-08-09 14:11:00,88.8,78.6,29.96,SSW,205,1.0,6.0,72,0.00,,,0.00,Wunderground v.1.15,2013-08-09 18:11:00,
2013-08-09 14:14:00,88.9,77.8,29.96,SSW,205,1.0,6.0,70,0.00,,,0.00,Wunderground v.1.15,2013-08-09 18:14:00,
2013-08-09 14:15:00,88.9,77.4,29.96,SSW,205,2.0,6.0,69,0.00,,,0.00,Wunderground v.1.15,2013-08-09 18:15:00,
2013-08-09 14:16:00,88.9,78.3,29.96,SSW,205,7.0,7.0,71,0.00,,,0.00,Wunderground v.1.15,2013-08-09 18:16:00,
2013-08-09 14:19:00,88.5,77.0,29.95,SSW,205,1.0,7.0,69,0.00,,,0.00,Wunderground v.1.15,2013-08-09 18:19:00,
2013-08-09 14:21:00,88.5,79.1,29.95,SSW,205,6.0,6.0,74,0.00,,,0.00,Wunderground v.1.15,2013-08-09 18:21:00,
2013-08-09 14:24:00,88.2,76.3,29.95,SSW,206,0.0,13.0,68,0.00,,,0.00,Wunderground v.1.15,2013-08-09 18:24:00,
2013-08-09 14:26:00,88.3,76.8,29.95,SSW,206,2.0,13.0,69,0.00,,,0.00,Wunderground v.1.15,2013-08-09 18:26:00,
2013-08-09 14:29:00,88.5,78.3,29.95,SSW,206,4.0,13.0,72,0.00,,,0.00,Wunderground v.1.15,2013-08-09 18:29:00,
2013-08-09 14:31:00,88.5,76.1,29.95,SSW,206,2.0,7.0,67,0.00,,,0.00,Wunderground v.1.15,2013-08-09 18:31:00,
2013-08-09 14:32:00,88.5,76.1,29.95,SSW,206,3.0,7.0,67,0.00,,,0.00,Wunderground v.1.15,2013-08-09 18:32:00,
2013-08-09 14:34:00,88.6,77.6,29.95,SSW,207,1.0,7.0,70,0.00,,,0.00,Wunderground v.1.15,2013-08-09 18:34:00,
2013-08-09 14:36:00,88.8,77.3,29.95,SSW,207,0.0,7.0,69,0.00,,,0.00,Wunderground v.1.15,2013-08-09 18:36:00,
2013-08-09 14:37:00,88.8,77.3,29.95,SSW,207,0.0,7.0,69,0.00,,,0.00,Wunderground v.1.15,2013-08-09 18:37:00,
2013-08-09 14:38:00,88.9,79.1,29.95,SSW,207,1.0,7.0,73,0.00,,,0.00,Wunderground v.1.15,2013-08-09 18:38:00,
2013-08-09 14:39:00,89.1,78.5,29.95,SSW,207,1.0,2.0,71,0.00,,,0.00,Wunderground v.1.15,2013-08-09 18:39:00,
2013-08-09 14:41:00,89.3,78.7,29.95,SSW,207,4.0,5.0,71,0.00,,,0.00,Wunderground v.1.15,2013-08-09 18:41:00,
2013-08-09 14:42:00,89.3,78.7,29.95,SSW,207,3.0,5.0,71,0.00,,,0.00,Wunderground v.1.15,2013-08-09 18:42:00,
2013-08-09 14:43:00,89.4,77.4,29.95,SSW,207,2.0,5.0,68,0.00,,,0.00,Wunderground v.1.15,2013-08-09 18:43:00,
2013-08-09 14:45:00,89.5,78.4,29.95,SSW,207,1.0,5.0,70,0.00,,,0.00,Wunderground v.1.15,2013-08-09 18:45:00,
2013-08-09 14:47:00,89.6,78.5,29.95,SSW,207,0.0,5.0,70,0.00,,,0.00,Wunderground v.1.15,2013-08-09 18:47:00,
2013-08-09 14:48:00,89.7,78.2,29.94,SSW,207,0.0,5.0,69,0.00,,,0.00,Wunderground v.1.15,2013-08-09 18:48:00,
2013-08-09 14:51:00,89.8,77.8,29.94,SSW,207,3.0,3.0,68,0.00,,,0.00,Wunderground v.1.15,2013-08-09 18:51:00,
2013-08-09 14:52:00,89.9,77.9,29.94,SSW,207,1.0,3.0,68,0.00,,,0.00,Wunderground v.1.15,2013-08-09 18:52:00,
2013-08-09 14:53:00,90.0,78.0,29.94,SSW,207,0.0,3.0,68,0.00,,,0.00,Wunderground v.1.15,2013-08-09 18:53:00,
2013-08-09 14:54:00,90.0,78.5,29.94,SSW,207,0.0,3.0,69,0.00,,,0.00,Wunderground v.1.15,2013-08-09 18:54:00,
2013-08-09 14:55:00,90.1,79.0,29.94,SSW,207,0.0,3.0,70,0.00,,,0.00,Wunderground v.1.15,2013-08-09 18:55:00,
2013-08-09 14:57:00,90.3,79.6,29.94,SSW,207,1.0,3.0,71,0.00,,,0.00,Wunderground v.1.15,2013-08-09 18:57:00,
2013-08-09 14:58:00,90.3,78.7,29.94,SSW,207,1.0,3.0,69,0.00,,,0.00,Wunderground v.1.15,2013-08-09 18:58:00,
2013-08-09 15:00:00,90.5,78.9,29.94,SSW,207,0.0,1.0,69,0.00,,,0.00,Wunderground v.1.15,2013-08-09 19:00:00,
2013-08-09 15:01:00,90.5,78.9,29.94,SSW,207,0.0,1.0,69,0.00,,,0.00,Wunderground v.1.15,2013-08-09 19:01:00,
2013-08-09 15:02:00,90.6,79.0,29.94,SSW,207,2.0,2.0,69,0.00,,,0.00,Wunderground v.1.15,2013-08-09 19:02:00,
2013-08-09 15:03:00,90.6,79.0,29.94,SSW,207,0.0,3.0,69,0.00,,,0.00,Wunderground v.1.15,2013-08-09 19:03:00,
2013-08-09 15:04:00,90.6,79.0,29.94,SSW,207,1.0,3.0,69,0.00,,,0.00,Wunderground v.1.15,2013-08-09 19:04:00,
2013-08-09 15:06:00,90.6,78.6,29.94,SSW,207,0.0,3.0,68,0.00,,,0.00,Wunderground v.1.15,2013-08-09 19:06:00,
2013-08-09 15:07:00,90.5,78.9,29.94,SSW,207,1.0,3.0,69,0.00,,,0.00,Wunderground v.1.15,2013-08-09 19:07:00,
2013-08-09 15:08:00,90.3,78.3,29.94,SSW,207,3.0,7.0,68,0.00,,,0.00,Wunderground v.1.15,2013-08-09 19:08:00,
2013-08-09 15:09:00,90.2,78.2,29.94,SSW,207,1.0,7.0,68,0.00,,,0.00,Wunderground v.1.15,2013-08-09 19:09:00,
2013-08-09 15:11:00,90.1,78.6,29.94,SSW,207,1.0,2.0,69,0.00,,,0.00,Wunderground v.1.15,2013-08-09 19:11:00,
2013-08-09 15:12:00,90.1,78.6,29.94,SSW,207,2.0,2.0,69,0.00,,,0.00,Wunderground v.1.15,2013-08-09 19:12:00,
2013-08-09 15:13:00,89.9,77.9,29.94,SSW,206,3.0,7.0,68,0.00,,,0.00,Wunderground v.1.15,2013-08-09 19:13:00,
2013-08-09 15:14:00,89.9,77.9,29.94,SSW,206,0.0,7.0,68,0.00,,,0.00,Wunderground v.1.15,2013-08-09 19:14:00,
2013-08-09 15:16:00,89.9,80.5,29.94,SSW,206,1.0,7.0,74,0.00,,,0.00,Wunderground v.1.15,2013-08-09 19:16:00,
2013-08-09 15:18:00,89.9,78.8,29.94,SSW,207,2.0,7.0,70,0.00,,,0.00,Wunderground v.1.15,2013-08-09 19:18:00,
2013-08-09 15:19:00,89.9,77.0,29.94,SSW,207,6.0,7.0,66,0.00,,,0.00,Wunderground v.1.15,2013-08-09 19:19:00,
2013-08-09 15:22:00,89.6,78.9,29.93,SSW,206,0.0,5.0,71,0.00,,,0.00,Wunderground v.1.15,2013-08-09 19:22:00,
2013-08-09 15:23:00,89.6,79.8,29.94,SSW,206,1.0,5.0,73,0.00,,,0.00,Wunderground v.1.15,2013-08-09 19:23:00,
2013-08-09 15:25:00,89.6,78.1,29.93,SSW,207,5.0,13.0,69,0.00,,,0.00,Wunderground v.1.15,2013-08-09 19:25:00,
2013-08-09 15:27:00,89.5,79.3,29.93,SSW,207,4.0,13.0,72,0.00,,,0.00,Wunderground v.1.15,2013-08-09 19:27:00,
2013-08-09 15:28:00,89.5,78.4,29.93,SSW,207,0.0,13.0,70,0.00,,,0.00,Wunderground v.1.15,2013-08-09 19:28:00,
2013-08-09 15:29:00,89.5,78.4,29.93,SSW,207,1.0,13.0,70,0.00,,,0.00,Wunderground v.1.15,2013-08-09 19:29:00,
2013-08-09 15:30:00,89.6,79.8,29.93,SSW,207,0.0,2.0,73,0.00,,,0.00,Wunderground v.1.15,2013-08-09 19:30:00,
2013-08-09 15:32:00,89.7,80.3,29.93,SSW,207,1.0,2.0,74,0.00,,,0.00,Wunderground v.1.15,2013-08-09 19:32:00,
2013-08-09 15:33:00,89.8,79.1,29.93,SSW,207,0.0,5.0,71,0.00,,,0.00,Wunderground v.1.15,2013-08-09 19:33:00,
2013-08-09 15:34:00,89.8,79.1,29.93,SSW,207,2.0,5.0,71,0.00,,,0.00,Wunderground v.1.15,2013-08-09 19:34:00,
2013-08-09 15:35:00,89.7,78.2,29.93,SSW,207,4.0,9.0,69,0.00,,,0.00,Wunderground v.1.15,2013-08-09 19:35:00,
2013-08-09 15:37:00,89.6,78.9,29.93,SSW,207,6.0,9.0,71,0.00,,,0.00,Wunderground v.1.15,2013-08-09 19:37:00,
2013-08-09 15:38:00,89.6,78.9,29.93,SSW,207,5.0,9.0,71,0.00,,,0.00,Wunderground v.1.15,2013-08-09 19:38:00,
2013-08-09 15:39:00,89.5,78.8,29.93,SSW,207,4.0,9.0,71,0.00,,,0.00,Wunderground v.1.15,2013-08-09 19:39:00,
2013-08-09 15:41:00,89.3,77.8,29.93,SSW,207,2.0,4.0,69,0.00,,,0.00,Wunderground v.1.15,2013-08-09 19:41:00,
2013-08-09 15:42:00,89.0,78.4,29.93,SSW,206,1.0,6.0,71,0.00,,,0.00,Wunderground v.1.15,2013-08-09 19:42:00,
2013-08-09 15:43:00,89.0,78.4,29.93,SSW,206,1.0,6.0,71,0.00,,,0.00,Wunderground v.1.15,2013-08-09 19:43:00,
2013-08-09 15:44:00,88.6,77.6,29.93,SSW,206,1.0,6.0,70,0.00,,,0.00,Wunderground v.1.15,2013-08-09 19:44:00,
2013-08-09 15:46:00,88.4,77.4,29.93,SSW,206,2.0,6.0,70,0.00,,,0.00,Wunderground v.1.15,2013-08-09 19:46:00,
2013-08-09 15:48:00,88.1,78.3,29.93,SSW,206,2.0,6.0,73,0.00,,,0.00,Wunderground v.1.15,2013-08-09 19:48:00,
2013-08-09 15:50:00,87.9,77.3,29.93,SSW,206,2.0,3.0,71,0.00,,,0.00,Wunderground v.1.15,2013-08-09 19:50:00,
2013-08-09 15:51:00,87.8,77.6,29.93,SSW,206,2.0,4.0,72,0.00,,,0.00,Wunderground v.1.15,2013-08-09 19:51:00,
2013-08-09 15:53:00,87.7,78.0,29.93,SSW,206,2.0,4.0,73,0.00,,,0.00,Wunderground v.1.15,2013-08-09 19:53:00,
2013-08-09 15:55:00,87.6,77.9,29.93,SSW,206,1.0,4.0,73,0.00,,,0.00,Wunderground v.1.15,2013-08-09 19:55:00,
2013-08-09 15:56:00,87.4,77.3,29.93,SSW,206,2.0,5.0,72,0.00,,,0.00,Wunderground v.1.15,2013-08-09 19:56:00,
2013-08-09 15:58:00,87.2,77.5,29.93,SSW,206,0.0,5.0,73,0.00,,,0.00,Wunderground v.1.15,2013-08-09 19:58:00,
2013-08-09 15:59:00,87.1,77.4,29.93,SSW,206,3.0,5.0,73,0.00,,,0.00,Wunderground v.1.15,2013-08-09 19:59:00,
2013-08-09 16:00:00,86.9,76.8,29.94,SSW,206,3.0,4.0,72,0.00,,,0.00,Wunderground v.1.15,2013-08-09 20:00:00,
2013-08-09 16:01:00,86.7,76.6,29.93,SSW,206,2.0,4.0,72,0.00,,,0.00,Wunderground v.1.15,2013-08-09 20:01:00,
2013-08-09 16:03:00,86.3,76.2,29.94,SSW,206,1.0,5.0,72,0.00,,,0.00,Wunderground v.1.15,2013-08-09 20:03:00,
2013-08-09 16:04:00,86.1,76.0,29.94,SSW,206,1.0,5.0,72,0.00,,,0.00,Wunderground v.1.15,2013-08-09 20:04:00,
2013-08-09 16:06:00,85.8,76.1,29.94,SSW,206,2.0,5.0,73,0.00,,,0.00,Wunderground v.1.15,2013-08-09 20:06:00,
2013-08-09 16:07:00,85.7,76.9,29.94,SSW,206,1.0,5.0,75,0.00,,,0.00,Wunderground v.1.15,2013-08-09 20:07:00,
2013-08-09 16:08:00,85.5,76.3,29.94,SSW,206,1.0,5.0,74,0.00,,,0.00,Wunderground v.1.15,2013-08-09 20:08:00,
2013-08-09 16:10:00,85.4,76.2,29.94,SSW,206,2.0,4.0,74,0.00,,,0.00,Wunderground v.1.15,2013-08-09 20:10:00,
2013-08-09 16:11:00,85.3,76.5,29.94,SSW,206,3.0,4.0,75,0.00,,,0.00,Wunderground v.1.15,2013-08-09 20:11:00,
2013-08-09 16:12:00,85.3,76.1,29.94,SSW,203,4.0,7.0,74,0.00,,,0.00,Wunderground v.1.15,2013-08-09 20:12:00,
2013-08-09 16:13:00,85.3,76.5,29.93,SSW,203,0.0,7.0,75,0.00,,,0.00,Wunderground v.1.15,2013-08-09 20:13:00,
2013-08-09 16:15:00,85.3,76.5,29.93,SSW,203,1.0,7.0,75,0.00,,,0.00,Wunderground v.1.15,2013-08-09 20:15:00,
2013-08-09 16:16:00,85.4,77.8,29.93,SSW,203,1.0,7.0,78,0.00,,,0.00,Wunderground v.1.15,2013-08-09 20:16:00,
2013-08-09 16:17:00,85.5,77.9,29.93,SSW,203,2.0,7.0,78,0.00,,,0.00,Wunderground v.1.15,2013-08-09 20:17:00,
2013-08-09 16:18:00,85.6,77.2,29.93,SSW,203,2.0,7.0,76,0.00,,,0.00,Wunderground v.1.15,2013-08-09 20:18:00,
2013-08-09 16:19:00,85.7,77.7,29.93,SSW,203,2.0,7.0,77,0.00,,,0.00,Wunderground v.1.15,2013-08-09 20:19:00,
2013-08-09 16:20:00,85.9,77.1,29.93,SSW,203,2.0,5.0,75,0.00,,,0.00,Wunderground v.1.15,2013-08-09 20:20:00,
2013-08-09 16:21:00,86.1,77.2,29.93,SSW,202,5.0,7.0,75,0.00,,,0.00,Wunderground v.1.15,2013-08-09 20:21:00,
2013-08-09 16:22:00,86.2,77.3,29.93,SSW,202,0.0,7.0,75,0.00,,,0.00,Wunderground v.1.15,2013-08-09 20:22:00,
2013-08-09 16:23:00,86.2,77.7,29.93,SSW,202,2.0,7.0,76,0.00,,,0.00,Wunderground v.1.15,2013-08-09 20:23:00,
2013-08-09 16:25:00,86.5,78.0,29.93,SSW,202,4.0,7.0,76,0.00,,,0.00,Wunderground v.1.15,2013-08-09 20:25:00,
2013-08-09 16:26:00,86.8,78.3,29.93,SSW,202,2.0,7.0,76,0.00,,,0.00,Wunderground v.1.15,2013-08-09 20:26:00,
2013-08-09 16:27:00,86.8,77.9,29.93,SSW,202,1.0,7.0,75,0.00,,,0.00,Wunderground v.1.15,2013-08-09 20:27:00,
2013-08-09 16:28:00,86.9,78.0,29.93,SSW,202,1.0,7.0,75,0.00,,,0.00,Wunderground v.1.15,2013-08-09 20:28:00,
2013-08-09 16:30:00,87.0,77.7,29.93,SSW,202,1.0,4.0,74,0.00,,,0.00,Wunderground v.1.15,2013-08-09 20:30:00,
2013-08-09 16:32:00,87.1,78.2,29.93,SSW,202,0.0,4.0,75,0.00,,,0.00,Wunderground v.1.15,2013-08-09 20:32:00,
2013-08-09 16:33:00,87.1,78.2,29.93,SSW,202,1.0,4.0,75,0.00,,,0.00,Wunderground v.1.15,2013-08-09 20:33:00,
2013-08-09 16:36:00,87.3,78.4,29.92,SSW,202,2.0,4.0,75,0.00,,,0.00,Wunderground v.1.15,2013-08-09 20:36:00,
2013-08-09 16:38:00,87.5,79.0,29.92,SSW,202,4.0,5.0,76,0.00,,,0.00,Wunderground v.1.15,2013-08-09 20:38:00,
2013-08-09 16:41:00,87.9,78.6,29.92,SSW,202,2.0,4.0,74,0.00,,,0.00,Wunderground v.1.15,2013-08-09 20:41:00,
2013-08-09 16:42:00,87.9,79.0,29.92,SSW,202,2.0,4.0,75,0.00,,,0.00,Wunderground v.1.15,2013-08-09 20:42:00,
2013-08-09 16:43:00,88.0,79.1,29.93,SSW,202,1.0,4.0,75,0.00,,,0.00,Wunderground v.1.15,2013-08-09 20:43:00,
2013-08-09 16:44:00,88.1,79.2,29.93,SSW,202,2.0,4.0,75,0.00,,,0.00,Wunderground v.1.15,2013-08-09 20:44:00,
2013-08-09 16:47:00,88.3,78.1,29.93,SSW,202,2.0,5.0,72,0.00,,,0.00,Wunderground v.1.15,2013-08-09 20:47:00,
2013-08-09 16:48:00,88.3,78.1,29.93,SSW,201,3.0,10.0,72,0.00,,,0.00,Wunderground v.1.15,2013-08-09 20:48:00,
2013-08-09 16:49:00,88.3,77.3,29.93,SSW,201,1.0,2.0,70,0.00,,,0.00,Wunderground v.1.15,2013-08-09 20:49:00,
2013-08-09 16:50:00,88.3,77.3,29.93,SSW,200,0.0,2.0,70,0.00,,,0.00,Wunderground v.1.15,2013-08-09 20:50:00,
2013-08-09 16:52:00,88.4,77.4,29.93,SSW,201,3.0,5.0,70,0.00,,,0.00,Wunderground v.1.15,2013-08-09 20:52:00,
2013-08-09 16:54:00,88.3,77.7,29.93,SSW,201,3.0,5.0,71,0.00,,,0.00,Wunderground v.1.15,2013-08-09 20:54:00,
2013-08-09 16:55:00,88.4,77.8,29.93,SSW,201,3.0,5.0,71,0.00,,,0.00,Wunderground v.1.15,2013-08-09 20:55:00,
2013-08-09 16:57:00,88.5,78.3,29.93,SSW,198,3.0,6.0,72,0.00,,,0.00,Wunderground v.1.15,2013-08-09 20:57:00,
2013-08-09 16:59:00,88.5,78.3,29.93,SSW,198,1.0,6.0,72,0.00,,,0.00,Wunderground v.1.15,2013-08-09 20:59:00,
2013-08-09 17:00:00,88.5,78.3,29.93,SSW,198,2.0,3.0,72,0.00,,,0.00,Wunderground v.1.15,2013-08-09 21:00:00,
2013-08-09 17:02:00,88.4,77.4,29.92,SSW,198,1.0,7.0,70,0.00,,,0.00,Wunderground v.1.15,2013-08-09 21:02:00,
2013-08-09 17:04:00,88.4,78.2,29.92,SSW,198,5.0,7.0,72,0.00,,,0.00,Wunderground v.1.15,2013-08-09 21:04:00,
2013-08-09 17:05:00,88.4,77.8,29.92,SSW,198,1.0,7.0,71,0.00,,,0.00,Wunderground v.1.15,2013-08-09 21:05:00,
2013-08-09 17:08:00,88.4,77.4,29.92,South,190,6.0,10.0,70,0.00,,,0.00,Wunderground v.1.15,2013-08-09 21:08:00,
2013-08-09 17:09:00,88.4,78.2,29.93,South,190,3.0,10.0,72,0.00,,,0.00,Wunderground v.1.15,2013-08-09 21:09:00,
2013-08-09 17:10:00,88.3,78.1,29.93,South,190,2.0,5.0,72,0.00,,,0.00,Wunderground v.1.15,2013-08-09 21:10:00,
2013-08-09 17:11:00,88.4,78.2,29.93,South,190,0.0,5.0,72,0.00,,,0.00,Wunderground v.1.15,2013-08-09 21:11:00,
2013-08-09 17:13:00,88.4,78.2,29.92,South,190,0.0,5.0,72,0.00,,,0.00,Wunderground v.1.15,2013-08-09 21:13:00,
2013-08-09 17:14:00,88.5,77.9,29.92,South,190,2.0,5.0,71,0.00,,,0.00,Wunderground v.1.15,2013-08-09 21:14:00,
2013-08-09 17:15:00,88.6,78.0,29.92,South,190,1.0,5.0,71,0.00,,,0.00,Wunderground v.1.15,2013-08-09 21:15:00,
2013-08-09 17:16:00,88.7,78.5,29.92,South,190,0.0,5.0,72,0.00,,,0.00,Wunderground v.1.15,2013-08-09 21:16:00,
2013-08-09 17:18:00,88.7,77.7,29.92,South,190,1.0,7.0,70,0.00,,,0.00,Wunderground v.1.15,2013-08-09 21:18:00,
2013-08-09 17:19:00,88.7,77.7,29.92,South,190,9.0,9.0,70,0.00,,,0.00,Wunderground v.1.15,2013-08-09 21:19:00,
2013-08-09 17:21:00,88.5,77.9,29.92,South,190,0.0,4.0,71,0.00,,,0.00,Wunderground v.1.15,2013-08-09 21:21:00,
2013-08-09 17:22:00,88.4,77.8,29.92,South,190,3.0,4.0,71,0.00,,,0.00,Wunderground v.1.15,2013-08-09 21:22:00,
2013-08-09 17:24:00,88.3,78.1,29.92,South,190,1.0,4.0,72,0.00,,,0.00,Wunderground v.1.15,2013-08-09 21:24:00,
2013-08-09 17:26:00,87.9,77.7,29.92,South,190,1.0,4.0,72,0.00,,,0.00,Wunderground v.1.15,2013-08-09 21:26:00,
2013-08-09 17:27:00,87.8,77.6,29.92,South,190,1.0,4.0,72,0.00,,,0.00,Wunderground v.1.15,2013-08-09 21:27:00,
2013-08-09 17:29:00,87.4,77.7,29.92,South,190,3.0,7.0,73,0.00,,,0.00,Wunderground v.1.15,2013-08-09 21:29:00,
2013-08-09 17:30:00,87.3,78.0,29.92,South,190,2.0,2.0,74,0.00,,,0.00,Wunderground v.1.15,2013-08-09 21:30:00,
2013-08-09 17:31:00,87.0,77.3,29.92,South,190,2.0,5.0,73,0.00,,,0.00,Wunderground v.1.15,2013-08-09 21:31:00,
2013-08-09 17:32:00,86.8,77.5,29.92,South,190,1.0,5.0,74,0.00,,,0.00,Wunderground v.1.15,2013-08-09 21:32:00,
2013-08-09 17:34:00,86.4,77.1,29.92,South,190,3.0,5.0,74,0.00,,,0.00,Wunderground v.1.15,2013-08-09 21:34:00,
2013-08-09 17:35:00,86.3,77.4,29.92,South,190,1.0,5.0,75,0.00,,,0.00,Wunderground v.1.15,2013-08-09 21:35:00,
2013-08-09 17:36:00,86.1,77.2,29.92,South,190,2.0,5.0,75,0.00,,,0.00,Wunderground v.1.15,2013-08-09 21:36:00,
2013-08-09 17:37:00,86.1,77.2,29.92,South,190,2.0,5.0,75,0.00,,,0.00,Wunderground v.1.15,2013-08-09 21:37:00,
2013-08-09 17:39:00,85.7,77.3,29.92,South,190,4.0,5.0,76,0.00,,,0.00,Wunderground v.1.15,2013-08-09 21:39:00,
2013-08-09 17:40:00,85.6,77.2,29.92,South,190,3.0,7.0,76,0.00,,,0.00,Wunderground v.1.15,2013-08-09 21:40:00,
2013-08-09 17:42:00,85.4,77.0,29.92,South,190,4.0,7.0,76,0.00,,,0.00,Wunderground v.1.15,2013-08-09 21:42:00,
2013-08-09 17:44:00,85.1,77.1,29.92,South,190,2.0,7.0,77,0.00,,,0.00,Wunderground v.1.15,2013-08-09 21:44:00,
2013-08-09 17:45:00,85.1,77.1,29.92,South,190,1.0,7.0,77,0.00,,,0.00,Wunderground v.1.15,2013-08-09 21:45:00,
2013-08-09 17:47:00,85.0,77.0,29.92,South,190,3.0,7.0,77,0.00,,,0.00,Wunderground v.1.15,2013-08-09 21:47:00,
2013-08-09 17:50:00,84.8,76.8,29.92,South,190,0.0,2.0,77,0.00,,,0.00,Wunderground v.1.15,2013-08-09 21:50:00,
2013-08-09 17:52:00,84.7,76.7,29.92,South,190,2.0,4.0,77,0.00,,,0.00,Wunderground v.1.15,2013-08-09 21:52:00,
2013-08-09 17:53:00,84.6,76.6,29.92,South,190,0.0,4.0,77,0.00,,,0.00,Wunderground v.1.15,2013-08-09 21:53:00,
2013-08-09 17:55:00,84.5,76.1,29.92,South,190,2.0,5.0,76,0.00,,,0.00,Wunderground v.1.15,2013-08-09 21:55:00,
2013-08-09 17:56:00,84.4,75.6,29.92,South,190,0.0,5.0,75,0.00,,,0.00,Wunderground v.1.15,2013-08-09 21:56:00,
2013-08-09 17:57:00,84.3,75.9,29.92,South,190,1.0,5.0,76,0.00,,,0.00,Wunderground v.1.15,2013-08-09 21:57:00,
2013-08-09 17:58:00,84.3,75.9,29.92,South,190,1.0,5.0,76,0.00,,,0.00,Wunderground v.1.15,2013-08-09 21:58:00,
2013-08-09 18:00:00,84.2,75.8,29.92,South,190,3.0,4.0,76,0.00,,,0.00,Wunderground v.1.15,2013-08-09 22:00:00,
2013-08-09 18:01:00,84.1,76.1,29.92,South,190,0.0,4.0,77,0.00,,,0.00,Wunderground v.1.15,2013-08-09 22:01:00,
2013-08-09 18:03:00,84.0,76.0,29.92,South,190,1.0,4.0,77,0.00,,,0.00,Wunderground v.1.15,2013-08-09 22:03:00,
2013-08-09 18:04:00,84.0,76.0,29.92,South,190,0.0,4.0,77,0.00,,,0.00,Wunderground v.1.15,2013-08-09 22:04:00,
2013-08-09 18:05:00,83.9,75.1,29.92,South,190,0.0,4.0,75,0.00,,,0.00,Wunderground v.1.15,2013-08-09 22:05:00,
2013-08-09 18:06:00,83.9,75.5,29.92,South,190,0.0,4.0,76,0.00,,,0.00,Wunderground v.1.15,2013-08-09 22:06:00,
2013-08-09 18:08:00,83.8,75.4,29.92,South,190,0.0,4.0,76,0.00,,,0.00,Wunderground v.1.15,2013-08-09 22:08:00,
2013-08-09 18:09:00,83.8,75.0,29.92,South,190,1.0,4.0,75,0.00,,,0.00,Wunderground v.1.15,2013-08-09 22:09:00,
2013-08-09 18:10:00,83.7,75.3,29.92,South,190,0.0,1.0,76,0.00,,,0.00,Wunderground v.1.15,2013-08-09 22:10:00,
2013-08-09 18:11:00,83.7,74.9,29.93,South,190,0.0,4.0,75,0.00,,,0.00,Wunderground v.1.15,2013-08-09 22:11:00,
2013-08-09 18:13:00,83.6,75.2,29.93,South,190,1.0,4.0,76,0.00,,,0.00,Wunderground v.1.15,2013-08-09 22:13:00,
2013-08-09 18:14:00,83.6,74.8,29.93,South,190,0.0,4.0,75,0.00,,,0.00,Wunderground v.1.15,2013-08-09 22:14:00,
2013-08-09 18:16:00,83.6,75.6,29.93,South,190,2.0,4.0,77,0.00,,,0.00,Wunderground v.1.15,2013-08-09 22:16:00,
2013-08-09 18:17:00,83.6,75.2,29.93,South,190,1.0,4.0,76,0.00,,,0.00,Wunderground v.1.15,2013-08-09 22:17:00,
2013-08-09 18:18:00,83.5,75.1,29.93,South,190,1.0,4.0,76,0.00,,,0.00,Wunderground v.1.15,2013-08-09 22:18:00,
2013-08-09 18:19:00,83.5,75.1,29.93,South,190,0.0,4.0,76,0.00,,,0.00,Wunderground v.1.15,2013-08-09 22:19:00,
2013-08-09 18:20:00,83.5,74.7,29.93,South,190,0.0,0.0,75,0.00,,,0.00,Wunderground v.1.15,2013-08-09 22:20:00,
2013-08-09 18:22:00,83.4,74.6,29.93,South,190,0.0,2.0,75,0.00,,,0.00,Wunderground v.1.15,2013-08-09 22:22:00,
2013-08-09 18:23:00,83.4,75.0,29.93,South,190,2.0,2.0,76,0.00,,,0.00,Wunderground v.1.15,2013-08-09 22:23:00,
2013-08-09 18:24:00,83.4,74.2,29.93,South,190,2.0,3.0,74,0.00,,,0.00,Wunderground v.1.15,2013-08-09 22:24:00,
2013-08-09 18:25:00,83.4,74.6,29.93,South,190,1.0,3.0,75,0.00,,,0.00,Wunderground v.1.15,2013-08-09 22:25:00,
2013-08-09 18:28:00,83.3,74.9,29.94,South,190,1.0,3.0,76,0.00,,,0.00,Wunderground v.1.15,2013-08-09 22:28:00,
2013-08-09 18:29:00,83.3,74.5,29.94,South,190,0.0,3.0,75,0.00,,,0.00,Wunderground v.1.15,2013-08-09 22:29:00,
2013-08-09 18:30:00,83.4,75.0,29.94,South,190,0.0,0.0,76,0.00,,,0.00,Wunderground v.1.15,2013-08-09 22:30:00,
2013-08-09 18:33:00,83.4,75.4,29.94,South,190,0.0,1.0,77,0.00,,,0.00,Wunderground v.1.15,2013-08-09 22:33:00,
2013-08-09 18:34:00,83.5,75.5,29.94,South,190,2.0,4.0,77,0.00,,,0.00,Wunderground v.1.15,2013-08-09 22:34:00,
2013-08-09 18:35:00,83.5,74.7,29.94,South,190,1.0,4.0,75,0.00,,,0.00,Wunderground v.1.15,2013-08-09 22:35:00,
2013-08-09 18:38:00,83.6,74.8,29.93,South,190,0.0,4.0,75,0.00,,,0.00,Wunderground v.1.15,2013-08-09 22:38:00,
2013-08-09 18:39:00,83.8,75.0,29.93,South,190,2.0,4.0,75,0.00,,,0.00,Wunderground v.1.15,2013-08-09 22:39:00,
2013-08-09 18:40:00,83.9,75.5,29.93,South,190,1.0,2.0,76,0.00,,,0.00,Wunderground v.1.15,2013-08-09 22:40:00,
2013-08-09 18:43:00,84.1,74.5,29.93,South,190,1.0,6.0,73,0.00,,,0.00,Wunderground v.1.15,2013-08-09 22:43:00,
2013-08-09 18:44:00,84.2,75.0,29.93,South,190,0.0,6.0,74,0.00,,,0.00,Wunderground v.1.15,2013-08-09 22:44:00,
2013-08-09 18:46:00,84.3,74.7,29.93,South,190,0.0,6.0,73,0.00,,,0.00,Wunderground v.1.15,2013-08-09 22:46:00,
2013-08-09 18:48:00,84.3,74.3,29.93,South,190,4.0,6.0,72,0.00,,,0.00,Wunderground v.1.15,2013-08-09 22:48:00,
2013-08-09 18:49:00,84.4,74.4,29.93,South,190,0.0,6.0,72,0.00,,,0.00,Wunderground v.1.15,2013-08-09 22:49:00,
2013-08-09 18:50:00,84.4,74.8,29.93,South,190,2.0,2.0,73,0.00,,,0.00,Wunderground v.1.15,2013-08-09 22:50:00,
2013-08-09 18:51:00,84.4,74.8,29.93,South,190,2.0,2.0,73,0.00,,,0.00,Wunderground v.1.15,2013-08-09 22:51:00,
2013-08-09 18:53:00,84.4,74.4,29.94,South,190,0.0,2.0,72,0.00,,,0.00,Wunderground v.1.15,2013-08-09 22:53:00,
2013-08-09 18:54:00,84.4,74.8,29.94,South,190,0.0,2.0,73,0.00,,,0.00,Wunderground v.1.15,2013-08-09 22:54:00,
2013-08-09 18:55:00,84.4,74.8,29.94,South,190,1.0,2.0,73,0.00,,,0.00,Wunderground v.1.15,2013-08-09 22:55:00,
2013-08-09 18:57:00,84.3,74.3,29.94,South,190,0.0,2.0,72,0.00,,,0.00,Wunderground v.1.15,2013-08-09 22:57:00,
2013-08-09 18:59:00,84.3,74.3,29.93,South,190,2.0,2.0,72,0.00,,,0.00,Wunderground v.1.15,2013-08-09 22:59:00,
2013-08-09 19:00:00,84.2,74.6,29.93,South,190,0.0,0.0,73,0.00,,,0.00,Wunderground v.1.15,2013-08-09 23:00:00,
2013-08-09 19:02:00,84.2,75.4,29.93,South,190,0.0,1.0,75,0.00,,,0.00,Wunderground v.1.15,2013-08-09 23:02:00,
2013-08-09 19:04:00,84.1,75.7,29.93,South,190,0.0,1.0,76,0.00,,,0.00,Wunderground v.1.15,2013-08-09 23:04:00,
2013-08-09 19:06:00,84.0,75.6,29.93,South,190,0.0,1.0,76,0.00,,,0.00,Wunderground v.1.15,2013-08-09 23:06:00,
2013-08-09 19:09:00,83.8,74.6,29.93,South,190,2.0,3.0,74,0.00,,,0.00,Wunderground v.1.15,2013-08-09 23:09:00,
2013-08-09 19:10:00,83.6,74.4,29.93,South,190,2.0,2.0,74,0.00,,,0.00,Wunderground v.1.15,2013-08-09 23:10:00,
2013-08-09 19:11:00,83.5,73.9,29.93,South,190,0.0,2.0,73,0.00,,,0.00,Wunderground v.1.15,2013-08-09 23:11:00,
2013-08-09 19:14:00,83.3,74.1,29.93,South,190,0.0,2.0,74,0.00,,,0.00,Wunderground v.1.15,2013-08-09 23:14:00,
2013-08-09 19:15:00,83.2,74.0,29.93,South,190,0.0,2.0,74,0.00,,,0.00,Wunderground v.1.15,2013-08-09 23:15:00,
2013-08-09 19:16:00,83.1,75.1,29.93,South,190,0.0,2.0,77,0.00,,,0.00,Wunderground v.1.15,2013-08-09 23:16:00,
2013-08-09 19:19:00,83.0,75.4,29.93,South,190,0.0,2.0,78,0.00,,,0.00,Wunderground v.1.15,2013-08-09 23:19:00,
2013-08-09 19:20:00,83.0,75.0,29.93,South,190,0.0,0.0,77,0.00,,,0.00,Wunderground v.1.15,2013-08-09 23:20:00,
2013-08-09 19:21:00,82.9,74.9,29.93,South,190,0.0,0.0,77,0.00,,,0.00,Wunderground v.1.15,2013-08-09 23:21:00,
2013-08-09 19:24:00,82.7,74.4,29.93,South,190,1.0,1.0,76,0.00,,,0.00,Wunderground v.1.15,2013-08-09 23:24:00,
2013-08-09 19:25:00,82.6,73.9,29.93,South,190,0.0,1.0,75,0.00,,,0.00,Wunderground v.1.15,2013-08-09 23:25:00,
2013-08-09 19:26:00,82.6,74.7,29.93,South,190,0.0,1.0,77,0.00,,,0.00,Wunderground v.1.15,2013-08-09 23:26:00,
2013-08-09 19:29:00,82.4,74.1,29.93,South,190,1.0,2.0,76,0.00,,,0.00,Wunderground v.1.15,2013-08-09 23:29:00,
2013-08-09 19:30:00,82.3,74.0,29.94,South,190,0.0,0.0,76,0.00,,,0.00,Wunderground v.1.15,2013-08-09 23:30:00,
2013-08-09 19:31:00,82.3,74.4,29.94,South,190,0.0,0.0,77,0.00,,,0.00,Wunderground v.1.15,2013-08-09 23:31:00,
2013-08-09 19:34:00,82.2,73.9,29.94,South,190,1.0,2.0,76,0.00,,,0.00,Wunderground v.1.15,2013-08-09 23:34:00,
2013-08-09 19:35:00,82.2,74.7,29.94,South,190,0.0,2.0,78,0.00,,,0.00,Wunderground v.1.15,2013-08-09 23:35:00,
2013-08-09 19:36:00,82.2,74.7,29.94,South,190,0.0,2.0,78,0.00,,,0.00,Wunderground v.1.15,2013-08-09 23:36:00,
2013-08-09 19:39:00,82.1,74.9,29.94,South,190,0.0,2.0,79,0.00,,,0.00,Wunderground v.1.15,2013-08-09 23:39:00,
2013-08-09 19:41:00,82.1,74.9,29.94,South,190,0.0,0.0,79,0.00,,,0.00,Wunderground v.1.15,2013-08-09 23:41:00,
2013-08-09 19:42:00,82.1,74.9,29.94,South,190,0.0,0.0,79,0.00,,,0.00,Wunderground v.1.15,2013-08-09 23:42:00,
2013-08-09 19:44:00,82.0,74.8,29.94,South,190,0.0,0.0,79,0.00,,,0.00,Wunderground v.1.15,2013-08-09 23:44:00,
2013-08-09 19:46:00,81.9,74.7,29.94,South,190,0.0,1.0,79,0.00,,,0.00,Wunderground v.1.15,2013-08-09 23:46:00,
2013-08-09 19:47:00,81.9,75.1,29.94,South,190,0.0,1.0,80,0.00,,,0.00,Wunderground v.1.15,2013-08-09 23:47:00,
2013-08-09 19:49:00,81.7,74.2,29.94,South,190,1.0,2.0,78,0.00,,,0.00,Wunderground v.1.15,2013-08-09 23:49:00,
2013-08-09 19:52:00,81.6,74.8,29.94,South,190,0.0,1.0,80,0.00,,,0.00,Wunderground v.1.15,2013-08-09 23:52:00,
2013-08-09 19:55:00,81.3,75.3,29.94,South,190,0.0,1.0,82,0.00,,,0.00,Wunderground v.1.15,2013-08-09 23:55:00,
2013-08-09 19:57:00,81.2,75.2,29.94,South,190,0.0,1.0,82,0.00,,,0.00,Wunderground v.1.15,2013-08-09 23:57:00,
2013-08-09 20:00:00,80.9,74.9,29.95,South,190,1.0,1.0,82,0.00,,,0.00,Wunderground v.1.15,2013-08-10 00:00:00,
2013-08-09 20:02:00,80.8,75.2,29.95,South,190,0.0,1.0,83,0.00,,,0.00,Wunderground v.1.15,2013-08-10 00:02:00,
2013-08-09 20:03:00,80.8,75.2,29.95,South,190,0.0,1.0,83,0.00,,,0.00,Wunderground v.1.15,2013-08-10 00:03:00,
2013-08-09 20:05:00,80.6,75.0,29.95,South,190,0.0,1.0,83,0.00,,,0.00,Wunderground v.1.15,2013-08-10 00:05:00,
2013-08-09 20:08:00,80.5,75.2,29.95,South,190,0.0,1.0,84,0.00,,,0.00,Wunderground v.1.15,2013-08-10 00:08:00,
2013-08-09 20:10:00,80.4,75.1,29.94,South,190,0.0,0.0,84,0.00,,,0.00,Wunderground v.1.15,2013-08-10 00:10:00,
2013-08-09 20:13:00,80.3,75.0,29.94,South,190,0.0,0.0,84,0.00,,,0.00,Wunderground v.1.15,2013-08-10 00:13:00,
2013-08-09 20:17:00,80.0,74.7,29.94,South,190,0.0,0.0,84,0.00,,,0.00,Wunderground v.1.15,2013-08-10 00:17:00,
2013-08-09 20:18:00,79.9,74.6,29.95,South,190,0.0,0.0,84,0.00,,,0.00,Wunderground v.1.15,2013-08-10 00:18:00,
2013-08-09 20:22:00,79.7,74.4,29.95,South,190,0.0,0.0,84,0.00,,,0.00,Wunderground v.1.15,2013-08-10 00:22:00,
2013-08-09 20:23:00,79.6,74.3,29.95,South,190,0.0,0.0,84,0.00,,,0.00,Wunderground v.1.15,2013-08-10 00:23:00,
2013-08-09 20:27:00,79.4,74.8,29.94,South,190,0.0,0.0,86,0.00,,,0.00,Wunderground v.1.15,2013-08-10 00:27:00,
2013-08-09 20:28:00,79.3,74.7,29.94,South,190,0.0,0.0,86,0.00,,,0.00,Wunderground v.1.15,2013-08-10 00:28:00,
2013-08-09 20:29:00,79.3,74.7,29.94,South,190,0.0,0.0,86,0.00,,,0.00,Wunderground v.1.15,2013-08-10 00:29:00,
2013-08-09 20:32:00,79.0,74.8,29.94,South,190,0.0,0.0,87,0.00,,,0.00,Wunderground v.1.15,2013-08-10 00:32:00,
2013-08-09 20:33:00,78.9,74.7,29.95,South,190,0.0,0.0,87,0.00,,,0.00,Wunderground v.1.15,2013-08-10 00:33:00,
2013-08-09 20:34:00,78.9,74.7,29.95,South,190,0.0,0.0,87,0.00,,,0.00,Wunderground v.1.15,2013-08-10 00:34:00,
2013-08-09 20:37:00,78.7,74.5,29.95,South,190,0.0,1.0,87,0.00,,,0.00,Wunderground v.1.15,2013-08-10 00:37:00,
2013-08-09 20:38:00,78.7,74.5,29.95,South,190,0.0,1.0,87,0.00,,,0.00,Wunderground v.1.15,2013-08-10 00:38:00,
2013-08-09 20:39:00,78.6,74.4,29.95,South,190,0.0,1.0,87,0.00,,,0.00,Wunderground v.1.15,2013-08-10 00:39:00,
2013-08-09 20:40:00,78.5,74.3,29.95,South,190,0.0,0.0,87,0.00,,,0.00,Wunderground v.1.15,2013-08-10 00:40:00,
2013-08-09 20:43:00,78.3,74.5,29.95,South,190,0.0,1.0,88,0.00,,,0.00,Wunderground v.1.15,2013-08-10 00:43:00,
2013-08-09 20:44:00,78.2,74.4,29.95,South,190,0.0,2.0,88,0.00,,,0.00,Wunderground v.1.15,2013-08-10 00:44:00,
2013-08-09 20:45:00,78.2,74.4,29.95,South,190,0.0,2.0,88,0.00,,,0.00,Wunderground v.1.15,2013-08-10 00:45:00,
2013-08-09 20:48:00,78.0,74.2,29.95,South,190,0.0,2.0,88,0.00,,,0.00,Wunderground v.1.15,2013-08-10 00:48:00,
2013-08-09 20:49:00,78.0,74.2,29.95,South,190,0.0,2.0,88,0.00,,,0.00,Wunderground v.1.15,2013-08-10 00:49:00,
2013-08-09 20:50:00,77.9,74.1,29.95,South,190,0.0,1.0,88,0.00,,,0.00,Wunderground v.1.15,2013-08-10 00:50:00,
2013-08-09 20:53:00,77.9,74.4,29.95,South,190,0.0,2.0,89,0.00,,,0.00,Wunderground v.1.15,2013-08-10 00:53:00,
2013-08-09 20:54:00,77.8,74.3,29.95,South,190,0.0,2.0,89,0.00,,,0.00,Wunderground v.1.15,2013-08-10 00:54:00,
2013-08-09 20:55:00,77.8,74.3,29.96,South,190,0.0,2.0,89,0.00,,,0.00,Wunderground v.1.15,2013-08-10 00:55:00,
2013-08-09 20:58:00,77.8,74.3,29.96,South,190,0.0,2.0,89,0.00,,,0.00,Wunderground v.1.15,2013-08-10 00:58:00,
2013-08-09 20:59:00,77.8,74.3,29.96,South,190,0.0,2.0,89,0.00,,,0.00,Wunderground v.1.15,2013-08-10 00:59:00,
2013-08-09 21:00:00,77.7,74.2,29.96,South,190,0.0,0.0,89,0.00,,,0.00,Wunderground v.1.15,2013-08-10 01:00:00,
2013-08-09 21:03:00,77.7,74.2,29.96,South,190,2.0,2.0,89,0.00,,,0.00,Wunderground v.1.15,2013-08-10 01:03:00,
2013-08-09 21:04:00,77.6,73.8,29.96,South,190,1.0,2.0,88,0.00,,,0.00,Wunderground v.1.15,2013-08-10 01:04:00,
2013-08-09 21:05:00,77.7,73.9,29.96,South,190,1.0,2.0,88,0.00,,,0.00,Wunderground v.1.15,2013-08-10 01:05:00,
2013-08-09 21:08:00,78.0,73.8,29.96,South,190,2.0,4.0,87,0.00,,,0.00,Wunderground v.1.15,2013-08-10 01:08:00,
2013-08-09 21:10:00,78.2,73.7,29.96,South,190,0.0,1.0,86,0.00,,,0.00,Wunderground v.1.15,2013-08-10 01:10:00,
2013-08-09 21:11:00,78.2,73.7,29.97,South,190,0.0,1.0,86,0.00,,,0.00,Wunderground v.1.15,2013-08-10 01:11:00,
2013-08-09 21:14:00,78.5,74.0,29.96,South,190,2.0,2.0,86,0.00,,,0.00,Wunderground v.1.15,2013-08-10 01:14:00,
2013-08-09 21:15:00,78.6,74.1,29.96,South,190,0.0,2.0,86,0.00,,,0.00,Wunderground v.1.15,2013-08-10 01:15:00,
2013-08-09 21:16:00,78.7,74.2,29.96,South,190,0.0,2.0,86,0.00,,,0.00,Wunderground v.1.15,2013-08-10 01:16:00,
2013-08-09 21:20:00,78.7,74.2,29.97,South,190,1.0,2.0,86,0.00,,,0.00,Wunderground v.1.15,2013-08-10 01:20:00,
2013-08-09 21:21:00,78.8,73.9,29.97,South,190,0.0,2.0,85,0.00,,,0.00,Wunderground v.1.15,2013-08-10 01:21:00,
2013-08-09 21:25:00,78.9,74.0,29.97,South,190,0.0,2.0,85,0.00,,,0.00,Wunderground v.1.15,2013-08-10 01:25:00,
2013-08-09 21:26:00,78.9,74.0,29.97,South,190,2.0,2.0,85,0.00,,,0.00,Wunderground v.1.15,2013-08-10 01:26:00,
2013-08-09 21:27:00,79.0,74.5,29.97,South,190,0.0,2.0,86,0.00,,,0.00,Wunderground v.1.15,2013-08-10 01:27:00,
2013-08-09 21:31:00,78.9,74.7,29.97,South,190,0.0,3.0,87,0.00,,,0.00,Wunderground v.1.15,2013-08-10 01:31:00,
2013-08-09 21:32:00,78.9,74.7,29.98,South,190,0.0,3.0,87,0.00,,,0.00,Wunderground v.1.15,2013-08-10 01:32:00,
2013-08-09 21:36:00,78.7,74.5,29.98,South,190,0.0,3.0,87,0.00,,,0.00,Wunderground v.1.15,2013-08-10 01:36:00,
2013-08-09 21:37:00,78.7,74.8,29.98,South,190,0.0,3.0,88,0.00,,,0.00,Wunderground v.1.15,2013-08-10 01:37:00,
2013-08-09 21:38:00,78.7,74.8,29.98,South,190,0.0,3.0,88,0.00,,,0.00,Wunderground v.1.15,2013-08-10 01:38:00,
2013-08-09 21:41:00,78.4,74.5,29.98,South,190,0.0,0.0,88,0.00,,,0.00,Wunderground v.1.15,2013-08-10 01:41:00,
2013-08-09 21:42:00,78.4,74.9,29.98,South,190,0.0,0.0,89,0.00,,,0.00,Wunderground v.1.15,2013-08-10 01:42:00,
2013-08-09 21:43:00,78.4,74.9,29.98,South,190,0.0,0.0,89,0.00,,,0.00,Wunderground v.1.15,2013-08-10 01:43:00,
2013-08-09 21:46:00,78.1,74.6,29.98,South,190,0.0,2.0,89,0.00,,,0.00,Wunderground v.1.15,2013-08-10 01:46:00,
2013-08-09 21:47:00,78.1,74.6,29.98,South,190,0.0,2.0,89,0.00,,,0.00,Wunderground v.1.15,2013-08-10 01:47:00,
2013-08-09 21:48:00,78.0,74.5,29.98,South,190,0.0,2.0,89,0.00,,,0.00,Wunderground v.1.15,2013-08-10 01:48:00,
2013-08-09 21:51:00,77.8,74.6,29.99,South,190,0.0,0.0,90,0.00,,,0.00,Wunderground v.1.15,2013-08-10 01:51:00,
2013-08-09 21:52:00,77.8,74.6,29.99,South,190,0.0,0.0,90,0.00,,,0.00,Wunderground v.1.15,2013-08-10 01:52:00,
2013-08-09 21:53:00,77.7,74.5,29.99,South,190,0.0,0.0,90,0.00,,,0.00,Wunderground v.1.15,2013-08-10 01:53:00,
2013-08-09 21:56:00,77.6,74.4,29.99,South,190,0.0,0.0,90,0.00,,,0.00,Wunderground v.1.15,2013-08-10 01:56:00,
2013-08-09 21:57:00,77.5,74.7,29.99,South,190,0.0,0.0,91,0.00,,,0.00,Wunderground v.1.15,2013-08-10 01:57:00,
2013-08-09 21:58:00,77.5,74.7,29.99,South,190,0.0,0.0,91,0.00,,,0.00,Wunderground v.1.15,2013-08-10 01:58:00,
2013-08-09 22:01:00,77.4,74.6,29.99,South,190,0.0,0.0,91,0.00,,,0.00,Wunderground v.1.15,2013-08-10 02:01:00,
2013-08-09 22:02:00,77.4,74.6,29.99,South,190,0.0,0.0,91,0.00,,,0.00,Wunderground v.1.15,2013-08-10 02:02:00,
2013-08-09 22:03:00,77.3,74.5,29.99,South,190,0.0,0.0,91,0.00,,,0.00,Wunderground v.1.15,2013-08-10 02:03:00,
2013-08-09 22:07:00,77.2,74.7,29.99,South,190,0.0,0.0,92,0.00,,,0.00,Wunderground v.1.15,2013-08-10 02:07:00,
2013-08-09 22:08:00,77.2,74.7,29.99,South,190,0.0,0.0,92,0.89,,,0.02,Wunderground v.1.15,2013-08-10 02:08:00,
2013-08-09 22:12:00,77.1,74.9,29.99,South,190,1.0,1.0,93,0.15,,,0.03,Wunderground v.1.15,2013-08-10 02:12:00,
2013-08-09 22:13:00,77.1,74.9,29.98,South,190,0.0,1.0,93,0.13,,,0.03,Wunderground v.1.15,2013-08-10 02:13:00,
2013-08-09 22:14:00,77.1,74.9,29.99,South,190,1.0,1.0,93,0.12,,,0.04,Wunderground v.1.15,2013-08-10 02:14:00,
2013-08-09 22:17:00,77.1,74.9,29.99,South,190,0.0,3.0,93,0.12,,,0.04,Wunderground v.1.15,2013-08-10 02:17:00,
2013-08-09 22:18:00,77.0,74.8,29.99,South,190,0.0,3.0,93,0.12,,,0.04,Wunderground v.1.15,2013-08-10 02:18:00,
2013-08-09 22:19:00,77.0,75.1,29.99,South,190,0.0,0.0,94,0.09,,,0.04,Wunderground v.1.15,2013-08-10 02:19:00,
2013-08-09 22:22:00,76.9,74.7,29.99,South,190,0.0,3.0,93,0.06,,,0.04,Wunderground v.1.15,2013-08-10 02:22:00,
2013-08-09 22:23:00,76.8,74.6,29.99,South,190,0.0,3.0,93,0.06,,,0.04,Wunderground v.1.15,2013-08-10 02:23:00,
2013-08-09 22:24:00,76.8,74.9,29.99,South,190,0.0,3.0,94,0.05,,,0.04,Wunderground v.1.15,2013-08-10 02:24:00,
2013-08-09 22:26:00,76.7,74.8,29.99,South,190,0.0,3.0,94,0.05,,,0.04,Wunderground v.1.15,2013-08-10 02:26:00,
2013-08-09 22:27:00,76.7,74.8,29.99,South,190,2.0,3.0,94,0.04,,,0.04,Wunderground v.1.15,2013-08-10 02:27:00,
2013-08-09 22:28:00,76.6,74.7,29.99,South,190,1.0,3.0,94,0.04,,,0.04,Wunderground v.1.15,2013-08-10 02:28:00,
2013-08-09 22:31:00,76.5,74.6,29.99,South,190,2.0,3.0,94,0.00,,,0.04,Wunderground v.1.15,2013-08-10 02:31:00,
2013-08-09 22:32:00,76.5,74.6,29.99,South,190,1.0,3.0,94,0.00,,,0.04,Wunderground v.1.15,2013-08-10 02:32:00,
2013-08-09 22:33:00,76.4,74.5,30.00,South,190,0.0,3.0,94,0.00,,,0.04,Wunderground v.1.15,2013-08-10 02:33:00,
2013-08-09 22:36:00,76.4,74.9,29.99,South,190,1.0,3.0,95,0.00,,,0.04,Wunderground v.1.15,2013-08-10 02:36:00,
2013-08-09 22:38:00,76.3,74.8,30.00,South,190,1.0,3.0,95,0.00,,,0.04,Wunderground v.1.15,2013-08-10 02:38:00,
2013-08-09 22:39:00,76.3,74.8,30.00,South,190,1.0,3.0,95,0.00,,,0.04,Wunderground v.1.15,2013-08-10 02:39:00,
2013-08-09 22:41:00,76.3,74.8,30.00,South,190,1.0,1.0,95,0.00,,,0.04,Wunderground v.1.15,2013-08-10 02:41:00,
2013-08-09 22:43:00,76.3,74.8,30.00,South,190,0.0,1.0,95,0.00,,,0.04,Wunderground v.1.15,2013-08-10 02:43:00,
2013-08-09 22:44:00,76.2,74.7,30.00,South,190,2.0,2.0,95,0.00,,,0.04,Wunderground v.1.15,2013-08-10 02:44:00,
2013-08-09 22:46:00,76.2,74.7,30.00,South,190,3.0,3.0,95,0.00,,,0.04,Wunderground v.1.15,2013-08-10 02:46:00,
2013-08-09 22:47:00,76.2,74.7,30.00,South,190,0.0,3.0,95,0.00,,,0.04,Wunderground v.1.15,2013-08-10 02:47:00,
2013-08-09 22:48:00,76.2,74.7,30.00,South,190,0.0,3.0,95,0.00,,,0.04,Wunderground v.1.15,2013-08-10 02:48:00,
2013-08-09 22:49:00,76.2,74.7,30.00,South,190,0.0,3.0,95,0.00,,,0.04,Wunderground v.1.15,2013-08-10 02:49:00,
2013-08-09 22:50:00,76.2,74.7,30.00,South,190,0.0,1.0,95,0.00,,,0.04,Wunderground v.1.15,2013-08-10 02:50:00,
2013-08-09 22:52:00,76.2,74.7,30.00,South,190,0.0,1.0,95,0.00,,,0.04,Wunderground v.1.15,2013-08-10 02:52:00,
2013-08-09 22:54:00,76.2,74.7,30.00,South,190,0.0,1.0,95,0.00,,,0.04,Wunderground v.1.15,2013-08-10 02:54:00,
2013-08-09 22:55:00,76.2,74.7,30.00,South,190,0.0,1.0,95,0.00,,,0.04,Wunderground v.1.15,2013-08-10 02:55:00,
2013-08-09 22:58:00,76.1,74.6,30.00,South,190,0.0,1.0,95,0.00,,,0.04,Wunderground v.1.15,2013-08-10 02:58:00,
2013-08-09 22:59:00,76.1,74.6,30.00,South,190,0.0,1.0,95,0.00,,,0.04,Wunderground v.1.15,2013-08-10 02:59:00,
2013-08-09 23:00:00,76.1,74.6,30.00,South,190,1.0,1.0,95,0.00,,,0.04,Wunderground v.1.15,2013-08-10 03:00:00,
2013-08-09 23:01:00,76.1,74.6,30.00,South,190,0.0,1.0,95,0.00,,,0.04,Wunderground v.1.15,2013-08-10 03:01:00,
2013-08-09 23:03:00,76.1,74.6,30.00,South,190,1.0,1.0,95,0.00,,,0.04,Wunderground v.1.15,2013-08-10 03:03:00,
2013-08-09 23:04:00,76.1,74.6,30.00,South,190,0.0,2.0,95,0.00,,,0.04,Wunderground v.1.15,2013-08-10 03:04:00,
2013-08-09 23:05:00,76.1,74.6,30.00,South,190,0.0,2.0,95,0.00,,,0.04,Wunderground v.1.15,2013-08-10 03:05:00,
2013-08-09 23:06:00,76.1,74.6,30.00,South,190,0.0,2.0,95,0.00,,,0.04,Wunderground v.1.15,2013-08-10 03:06:00,
2013-08-09 23:09:00,76.1,74.9,30.00,South,190,0.0,2.0,96,0.00,,,0.04,Wunderground v.1.15,2013-08-10 03:09:00,
2013-08-09 23:10:00,76.1,74.9,30.00,South,190,0.0,1.0,96,0.00,,,0.04,Wunderground v.1.15,2013-08-10 03:10:00,
2013-08-09 23:11:00,76.1,74.9,30.00,South,190,0.0,1.0,96,0.00,,,0.04,Wunderground v.1.15,2013-08-10 03:11:00,
2013-08-09 23:12:00,76.1,74.9,30.00,South,190,1.0,1.0,96,0.00,,,0.04,Wunderground v.1.15,2013-08-10 03:12:00,
2013-08-09 23:14:00,76.1,74.9,30.00,South,190,0.0,2.0,96,0.00,,,0.04,Wunderground v.1.15,2013-08-10 03:14:00,
2013-08-09 23:15:00,76.0,74.8,30.00,South,190,0.0,2.0,96,0.00,,,0.04,Wunderground v.1.15,2013-08-10 03:15:00,
2013-08-09 23:16:00,76.0,74.8,30.00,South,190,0.0,2.0,96,0.00,,,0.04,Wunderground v.1.15,2013-08-10 03:16:00,
2013-08-09 23:17:00,76.0,74.8,30.00,South,190,2.0,2.0,96,0.00,,,0.04,Wunderground v.1.15,2013-08-10 03:17:00,
2013-08-09 23:19:00,76.0,74.8,30.00,South,190,0.0,2.0,96,0.00,,,0.04,Wunderground v.1.15,2013-08-10 03:19:00,
2013-08-09 23:20:00,76.0,74.8,30.00,South,190,0.0,1.0,96,0.00,,,0.04,Wunderground v.1.15,2013-08-10 03:20:00,
2013-08-09 23:21:00,76.0,74.8,30.00,South,190,1.0,1.0,96,0.00,,,0.04,Wunderground v.1.15,2013-08-10 03:21:00,
2013-08-09 23:23:00,76.0,74.8,30.00,South,190,2.0,2.0,96,0.00,,,0.04,Wunderground v.1.15,2013-08-10 03:23:00,
2013-08-09 23:24:00,76.0,74.8,30.00,South,190,0.0,2.0,96,0.00,,,0.04,Wunderground v.1.15,2013-08-10 03:24:00,
2013-08-09 23:25:00,76.0,74.8,30.00,South,190,1.0,2.0,96,0.00,,,0.04,Wunderground v.1.15,2013-08-10 03:25:00,
2013-08-09 23:26:00,76.0,74.8,29.99,South,190,1.0,2.0,96,0.00,,,0.04,Wunderground v.1.15,2013-08-10 03:26:00,
2013-08-09 23:28:00,76.0,74.8,30.00,South,190,0.0,2.0,96,0.00,,,0.04,Wunderground v.1.15,2013-08-10 03:28:00,
2013-08-09 23:29:00,76.0,74.8,30.00,South,190,1.0,2.0,96,0.00,,,0.04,Wunderground v.1.15,2013-08-10 03:29:00,
2013-08-09 23:30:00,75.9,74.7,30.00,South,190,1.0,2.0,96,0.00,,,0.04,Wunderground v.1.15,2013-08-10 03:30:00,
2013-08-09 23:31:00,75.9,74.7,30.00,South,190,1.0,2.0,96,0.00,,,0.04,Wunderground v.1.15,2013-08-10 03:31:00,
2013-08-09 23:33:00,75.9,74.7,29.99,South,190,1.0,2.0,96,0.00,,,0.04,Wunderground v.1.15,2013-08-10 03:33:00,
2013-08-09 23:34:00,75.9,74.7,29.99,South,190,1.0,2.0,96,0.00,,,0.04,Wunderground v.1.15,2013-08-10 03:34:00,
2013-08-09 23:36:00,75.9,74.7,30.00,South,190,0.0,2.0,96,0.00,,,0.04,Wunderground v.1.15,2013-08-10 03:36:00,
2013-08-09 23:38:00,75.8,74.6,29.99,South,190,1.0,2.0,96,0.00,,,0.04,Wunderground v.1.15,2013-08-10 03:38:00,
2013-08-09 23:39:00,75.8,74.6,29.99,South,190,1.0,1.0,96,0.00,,,0.04,Wunderground v.1.15,2013-08-10 03:39:00,
2013-08-09 23:41:00,75.8,74.6,29.99,South,190,1.0,2.0,96,0.00,,,0.04,Wunderground v.1.15,2013-08-10 03:41:00,
2013-08-09 23:42:00,75.8,74.6,29.99,South,190,1.0,2.0,96,0.00,,,0.04,Wunderground v.1.15,2013-08-10 03:42:00,
2013-08-09 23:44:00,75.7,74.5,29.99,South,190,0.0,2.0,96,0.00,,,0.04,Wunderground v.1.15,2013-08-10 03:44:00,
2013-08-09 23:45:00,75.7,74.5,29.99,South,190,0.0,2.0,96,0.00,,,0.04,Wunderground v.1.15,2013-08-10 03:45:00,
2013-08-09 23:46:00,75.7,74.5,29.99,South,190,1.0,2.0,96,0.00,,,0.04,Wunderground v.1.15,2013-08-10 03:46:00,
2013-08-09 23:47:00,75.7,74.5,29.99,South,190,0.0,2.0,96,0.00,,,0.04,Wunderground v.1.15,2013-08-10 03:47:00,
2013-08-09 23:49:00,75.7,74.5,29.99,South,190,0.0,2.0,96,0.00,,,0.04,Wunderground v.1.15,2013-08-10 03:49:00,
2013-08-09 23:50:00,75.6,74.4,30.00,South,190,0.0,0.0,96,0.00,,,0.04,Wunderground v.1.15,2013-08-10 03:50:00,
2013-08-09 23:52:00,75.6,74.4,30.00,South,190,0.0,0.0,96,0.00,,,0.04,Wunderground v.1.15,2013-08-10 03:52:00,
2013-08-09 23:54:00,75.5,74.3,30.00,South,190,0.0,0.0,96,0.00,,,0.04,Wunderground v.1.15,2013-08-10 03:54:00,
2013-08-09 23:55:00,75.5,74.3,30.00,South,190,0.0,0.0,96,0.00,,,0.04,Wunderground v.1.15,2013-08-10 03:55:00,
2013-08-09 23:57:00,75.4,73.9,30.00,South,190,0.0,0.0,95,0.00,,,0.04,Wunderground v.1.15,2013-08-10 03:57:00,
2013-08-09 23:59:00,75.4,74.2,30.00,South,190,0.0,0.0,96,0.00,,,0.04,Wunderground v.1.15,2013-08-10 03:59:00,